<?xml version='1.0' encoding='UTF-8'?><gpx version="1.1" creator="JPX - https://github.com/jenetics/jpx" xmlns="http://www.topografix.com/GPX/1/1"><trk><trkseg><trkpt lat="51.041861805310894" lon="2.3784624372099215"><ele>5.0</ele><time>2026-04-04T10:40:59.4Z</time></trkpt><trkpt lat="51.04183987825462" lon="2.37836497208494"><ele>5.0</ele><time>2026-04-04T10:41:01.399Z</time></trkpt><trkpt lat="51.04193257276292" lon="2.378313276283119"><ele>5.0</ele><time>2026-04-04T10:41:04.984Z</time></trkpt><trkpt lat="51.041817804026756" lon="2.37826924384371"><ele>5.0</ele><time>2026-04-04T10:41:05.986Z</time></trkpt><trkpt lat="51.041755555719185" lon="2.378296368486752"><ele>5.0</ele><time>2026-04-04T10:41:09.987Z</time></trkpt><trkpt lat="51.041669025641184" lon="2.378293836172906"><ele>5.0</ele><time>2026-04-04T10:41:14.989Z</time></trkpt><trkpt lat="51.041605099836275" lon="2.3782858790210284"><ele>4.833333333333334</ele><time>2026-04-04T10:41:17.982Z</time></trkpt><trkpt lat="51.041534007745284" lon="2.378220514838335"><ele>4.666666666666667</ele><time>2026-04-04T10:41:20.983Z</time></trkpt><trkpt lat="51.041459079479246" lon="2.378197392510211"><ele>4.5</ele><time>2026-04-04T10:41:24.982Z</time></trkpt><trkpt lat="51.04137993088405" lon="2.37821517440808"><ele>4.333333333333333</ele><time>2026-04-04T10:41:28.981Z</time></trkpt><trkpt lat="51.04130092388041" lon="2.378244465684987"><ele>4.166666666666666</ele><time>2026-04-04T10:41:32.982Z</time></trkpt><trkpt lat="51.04122257806615" lon="2.378294522810035"><ele>4.0</ele><time>2026-04-04T10:41:36.98Z</time></trkpt><trkpt lat="51.041160037487245" lon="2.3783289935900473"><ele>4.0</ele><time>2026-04-04T10:41:39.983Z</time></trkpt><trkpt lat="51.041088537395936" lon="2.378377772625752"><ele>3.9999999999999996</ele><time>2026-04-04T10:41:43.983Z</time></trkpt><trkpt lat="51.041024472225544" lon="2.378300910348651"><ele>4.0</ele><time>2026-04-04T10:41:49.985Z</time></trkpt><trkpt lat="51.040944765807346" lon="2.378280237950612"><ele>4.0</ele><time>2026-04-04T10:41:53.989Z</time></trkpt><trkpt lat="51.040888421139606" lon="2.3783309171298592"><ele>3.9999999999999996</ele><time>2026-04-04T10:41:55.985Z</time></trkpt><trkpt lat="51.04082449083622" lon="2.3783429281737334"><ele>4.0</ele><time>2026-04-04T10:41:57.988Z</time></trkpt><trkpt lat="51.04076155483022" lon="2.3783681700237187"><ele>4.0</ele><time>2026-04-04T10:41:59.984Z</time></trkpt><trkpt lat="51.040689278599224" lon="2.3783487932471945"><ele>4.166666666666666</ele><time>2026-04-04T10:42:01.985Z</time></trkpt><trkpt lat="51.040619663613846" lon="2.378339375892013"><ele>4.333333333333333</ele><time>2026-04-04T10:42:03.984Z</time></trkpt><trkpt lat="51.040553876957595" lon="2.378328981568866"><ele>4.5</ele><time>2026-04-04T10:42:05.986Z</time></trkpt><trkpt lat="51.040491480032664" lon="2.3783028964499846"><ele>4.666666666666667</ele><time>2026-04-04T10:42:21.984Z</time></trkpt><trkpt lat="51.04042127254091" lon="2.3782930263694437"><ele>4.833333333333334</ele><time>2026-04-04T10:42:23.985Z</time></trkpt><trkpt lat="51.04033264890081" lon="2.378285098969096"><ele>5.0</ele><time>2026-04-04T10:42:25.982Z</time></trkpt><trkpt lat="51.04023472120205" lon="2.3782523561512052"><ele>5.0</ele><time>2026-04-04T10:42:27.986Z</time></trkpt><trkpt lat="51.040133800934534" lon="2.37825973403829"><ele>5.0</ele><time>2026-04-04T10:42:29.985Z</time></trkpt><trkpt lat="51.04002049888017" lon="2.3782296149781867"><ele>5.0</ele><time>2026-04-04T10:42:31.987Z</time></trkpt><trkpt lat="51.03995150194884" lon="2.378221098087361"><ele>5.0</ele><time>2026-04-04T10:42:32.983Z</time></trkpt><trkpt lat="51.03988413380938" lon="2.378200020483687"><ele>5.0</ele><time>2026-04-04T10:42:33.988Z</time></trkpt><trkpt lat="51.03981497688623" lon="2.3781520563066003"><ele>5.0</ele><time>2026-04-04T10:42:34.984Z</time></trkpt><trkpt lat="51.0396849143002" lon="2.378294627526332"><ele>5.2</ele><time>2026-04-04T10:42:35.984Z</time></trkpt><trkpt lat="51.039611105612934" lon="2.3782200590879605"><ele>5.4</ele><time>2026-04-04T10:42:37.986Z</time></trkpt><trkpt lat="51.039530254908506" lon="2.3781273736248223"><ele>5.6</ele><time>2026-04-04T10:42:39.983Z</time></trkpt><trkpt lat="51.03945206445579" lon="2.3780424904556403"><ele>5.8</ele><time>2026-04-04T10:42:41.985Z</time></trkpt><trkpt lat="51.0393598657911" lon="2.3779575699399693"><ele>6.0</ele><time>2026-04-04T10:42:43.986Z</time></trkpt><trkpt lat="51.03925897673478" lon="2.377867045776805"><ele>6.0</ele><time>2026-04-04T10:42:45.964Z</time></trkpt><trkpt lat="51.039161004695316" lon="2.37777428959153"><ele>6.0</ele><time>2026-04-04T10:42:47.968Z</time></trkpt><trkpt lat="51.039082832001284" lon="2.3776999689840403"><ele>6.0</ele><time>2026-04-04T10:42:49.973Z</time></trkpt><trkpt lat="51.038969311686444" lon="2.3775790578310536"><ele>6.0</ele><time>2026-04-04T10:42:51.976Z</time></trkpt><trkpt lat="51.0389108826625" lon="2.377506172127679"><ele>6.0</ele><time>2026-04-04T10:42:53.979Z</time></trkpt><trkpt lat="51.03887680820468" lon="2.3773621243708347"><ele>6.142857142857142</ele><time>2026-04-04T10:42:55.982Z</time></trkpt><trkpt lat="51.03884347896303" lon="2.3772720912694667"><ele>6.285714285714286</ele><time>2026-04-04T10:42:57.985Z</time></trkpt><trkpt lat="51.03880456243728" lon="2.377166669806537"><ele>6.428571428571429</ele><time>2026-04-04T10:42:59.987Z</time></trkpt><trkpt lat="51.03883527403697" lon="2.377063357166337"><ele>6.571428571428571</ele><time>2026-04-04T10:43:00.988Z</time></trkpt><trkpt lat="51.038801155584174" lon="2.376956806768652"><ele>6.714285714285714</ele><time>2026-04-04T10:43:02.989Z</time></trkpt><trkpt lat="51.03877249654939" lon="2.3768505825931974"><ele>6.857142857142857</ele><time>2026-04-04T10:43:04.991Z</time></trkpt><trkpt lat="51.03874636988506" lon="2.376737590119643"><ele>7.0</ele><time>2026-04-04T10:43:06.992Z</time></trkpt><trkpt lat="51.03871539945027" lon="2.376629250021967"><ele>7.0</ele><time>2026-04-04T10:43:08.993Z</time></trkpt><trkpt lat="51.03868314130169" lon="2.3765238078774384"><ele>7.0</ele><time>2026-04-04T10:43:10.994Z</time></trkpt><trkpt lat="51.03864823910543" lon="2.3764402243147"><ele>7.0</ele><time>2026-04-04T10:43:12.995Z</time></trkpt><trkpt lat="51.03862045640604" lon="2.37633399470559"><ele>7.0</ele><time>2026-04-04T10:43:16.996Z</time></trkpt><trkpt lat="51.038584909525746" lon="2.376208504893175"><ele>7.0</ele><time>2026-04-04T10:43:19.997Z</time></trkpt><trkpt lat="51.03855595205295" lon="2.376117421381117"><ele>7.0</ele><time>2026-04-04T10:43:21.998Z</time></trkpt><trkpt lat="51.03851138738195" lon="2.375994777993867"><ele>7.0</ele><time>2026-04-04T10:43:24.998Z</time></trkpt><trkpt lat="51.03848950757478" lon="2.3758957301546544"><ele>7.0</ele><time>2026-04-04T10:43:26.999Z</time></trkpt><trkpt lat="51.03845144350325" lon="2.3758125833122894"><ele>7.0</ele><time>2026-04-04T10:43:28.999Z</time></trkpt><trkpt lat="51.03842736329926" lon="2.375710618415724"><ele>7.0</ele><time>2026-04-04T10:43:30.999Z</time></trkpt><trkpt lat="51.038385516972006" lon="2.375587274040715"><ele>7.0</ele><time>2026-04-04T10:43:34Z</time></trkpt><trkpt lat="51.03837910697567" lon="2.375476000397763"><ele>7.0</ele><time>2026-04-04T10:43:37Z</time></trkpt><trkpt lat="51.038330795089145" lon="2.375382088821473"><ele>7.0</ele><time>2026-04-04T10:43:40Z</time></trkpt><trkpt lat="51.03828622168676" lon="2.3752741104523825"><ele>7.0</ele><time>2026-04-04T10:43:43.001Z</time></trkpt><trkpt lat="51.03823183131919" lon="2.3751750565035366"><ele>7.0</ele><time>2026-04-04T10:43:45.001Z</time></trkpt><trkpt lat="51.03818302916632" lon="2.3750391275385283"><ele>7.0</ele><time>2026-04-04T10:43:48.001Z</time></trkpt><trkpt lat="51.03801825063108" lon="2.374762906682637"><ele>7.0</ele><time>2026-04-04T10:44:06.001Z</time></trkpt><trkpt lat="51.037962411330945" lon="2.374626664131346"><ele>7.0</ele><time>2026-04-04T10:44:08.001Z</time></trkpt><trkpt lat="51.03788935280427" lon="2.3745093310607515"><ele>6.199999999999999</ele><time>2026-04-04T10:44:10.001Z</time></trkpt><trkpt lat="51.037825229774405" lon="2.374409805849227"><ele>5.3999999999999995</ele><time>2026-04-04T10:44:12.001Z</time></trkpt><trkpt lat="51.03776929614265" lon="2.374326153699895"><ele>4.6</ele><time>2026-04-04T10:44:14.002Z</time></trkpt><trkpt lat="51.03772184048894" lon="2.374244372423593"><ele>3.8</ele><time>2026-04-04T10:44:16.002Z</time></trkpt><trkpt lat="51.03761404485972" lon="2.374351110121318"><ele>3.0</ele><time>2026-04-04T10:44:17.002Z</time></trkpt><trkpt lat="51.0376789280108" lon="2.3741698515565104"><ele>3.0</ele><time>2026-04-04T10:44:18.002Z</time></trkpt><trkpt lat="51.03760923262815" lon="2.3740863156137997"><ele>3.0</ele><time>2026-04-04T10:44:21.002Z</time></trkpt><trkpt lat="51.037566529698324" lon="2.373979482687398"><ele>3.0</ele><time>2026-04-04T10:44:24.002Z</time></trkpt><trkpt lat="51.03750134143275" lon="2.3739184507085547"><ele>3.0</ele><time>2026-04-04T10:44:27.002Z</time></trkpt><trkpt lat="51.03744456689645" lon="2.3738487435373425"><ele>3.0</ele><time>2026-04-04T10:44:29.002Z</time></trkpt><trkpt lat="51.037388981135415" lon="2.3737797375319727"><ele>3.0</ele><time>2026-04-04T10:44:31.002Z</time></trkpt><trkpt lat="51.037319128331916" lon="2.373692456663737"><ele>3.1666666666666665</ele><time>2026-04-04T10:44:34.002Z</time></trkpt><trkpt lat="51.03724122238632" lon="2.3736113670185373"><ele>3.333333333333333</ele><time>2026-04-04T10:44:37.002Z</time></trkpt><trkpt lat="51.03715957173874" lon="2.3735360390295255"><ele>3.5</ele><time>2026-04-04T10:44:40.002Z</time></trkpt><trkpt lat="51.03709788429282" lon="2.3734904519600626"><ele>3.6666666666666665</ele><time>2026-04-04T10:44:42.002Z</time></trkpt><trkpt lat="51.037021420760354" lon="2.3734107372872746"><ele>3.833333333333333</ele><time>2026-04-04T10:44:45.002Z</time></trkpt><trkpt lat="51.03696302412274" lon="2.373350267837504"><ele>4.0</ele><time>2026-04-04T10:44:47.002Z</time></trkpt><trkpt lat="51.03689883313241" lon="2.37329858697241"><ele>4.0</ele><time>2026-04-04T10:44:49.002Z</time></trkpt><trkpt lat="51.03683340636324" lon="2.3732531097288"><ele>3.9999999999999996</ele><time>2026-04-04T10:44:51.003Z</time></trkpt><trkpt lat="51.03677301615038" lon="2.3732102318661292"><ele>4.0</ele><time>2026-04-04T10:44:53.003Z</time></trkpt><trkpt lat="51.036691352697325" lon="2.37314750711523"><ele>4.0</ele><time>2026-04-04T10:44:56.002Z</time></trkpt><trkpt lat="51.03663436541882" lon="2.37310010774427"><ele>3.9999999999999996</ele><time>2026-04-04T10:44:58.002Z</time></trkpt><trkpt lat="51.036576574122996" lon="2.373059653419523"><ele>4.0</ele><time>2026-04-04T10:45:00.002Z</time></trkpt><trkpt lat="51.03652013269141" lon="2.3730108008861617"><ele>4.0</ele><time>2026-04-04T10:45:02.002Z</time></trkpt><trkpt lat="51.03645501378177" lon="2.3729851520626317"><ele>5.166666666666666</ele><time>2026-04-04T10:45:04.002Z</time></trkpt><trkpt lat="51.036394785862726" lon="2.3729400259001014"><ele>6.333333333333333</ele><time>2026-04-04T10:45:06.002Z</time></trkpt><trkpt lat="51.03633198049037" lon="2.3728938040129073"><ele>7.5</ele><time>2026-04-04T10:45:08.001Z</time></trkpt><trkpt lat="51.0362519580516" lon="2.3728394832089195"><ele>8.666666666666666</ele><time>2026-04-04T10:45:11.001Z</time></trkpt><trkpt lat="51.0361801492027" lon="2.37277638452358"><ele>9.833333333333332</ele><time>2026-04-04T10:45:14.001Z</time></trkpt><trkpt lat="51.036100230645424" lon="2.372729213161745"><ele>11.0</ele><time>2026-04-04T10:45:17.001Z</time></trkpt><trkpt lat="51.0360227182545" lon="2.3726744671183653"><ele>11.0</ele><time>2026-04-04T10:45:20.001Z</time></trkpt><trkpt lat="51.035963271258325" lon="2.372631301126535"><ele>11.0</ele><time>2026-04-04T10:45:22.001Z</time></trkpt><trkpt lat="51.035876629593645" lon="2.3725598190336865"><ele>11.0</ele><time>2026-04-04T10:45:25.001Z</time></trkpt><trkpt lat="51.03580534767999" lon="2.372507780090901"><ele>11.0</ele><time>2026-04-04T10:45:28.001Z</time></trkpt><trkpt lat="51.03572732739182" lon="2.3724411940899377"><ele>11.0</ele><time>2026-04-04T10:45:31Z</time></trkpt><trkpt lat="51.03566090031886" lon="2.372390879672917"><ele>11.0</ele><time>2026-04-04T10:45:34Z</time></trkpt><trkpt lat="51.03558107145868" lon="2.3723528424493643"><ele>10.0</ele><time>2026-04-04T10:45:37Z</time></trkpt><trkpt lat="51.03551041516647" lon="2.3723526812745592"><ele>9.0</ele><time>2026-04-04T10:45:39Z</time></trkpt><trkpt lat="51.035413320658925" lon="2.372320597955338"><ele>8.0</ele><time>2026-04-04T10:45:42Z</time></trkpt><trkpt lat="51.03534188823659" lon="2.372297787395741"><ele>7.0</ele><time>2026-04-04T10:45:44Z</time></trkpt><trkpt lat="51.035276223782404" lon="2.372278641764743"><ele>6.0</ele><time>2026-04-04T10:45:46Z</time></trkpt><trkpt lat="51.035208246899685" lon="2.372253325300211"><ele>5.0</ele><time>2026-04-04T10:45:48Z</time></trkpt><trkpt lat="51.03513096625243" lon="2.3722398786596286"><ele>5.0</ele><time>2026-04-04T10:45:50Z</time></trkpt><trkpt lat="51.03506257365249" lon="2.372218812656098"><ele>5.0</ele><time>2026-04-04T10:45:52Z</time></trkpt><trkpt lat="51.03499297428178" lon="2.3721969917998122"><ele>5.0</ele><time>2026-04-04T10:45:54Z</time></trkpt><trkpt lat="51.03491636782419" lon="2.37218386953243"><ele>5.0</ele><time>2026-04-04T10:45:56Z</time></trkpt><trkpt lat="51.03483757268401" lon="2.372156268608626"><ele>5.0</ele><time>2026-04-04T10:45:58Z</time></trkpt><trkpt lat="51.034760537975934" lon="2.3721280149127226"><ele>5.0</ele><time>2026-04-04T10:46:00Z</time></trkpt><trkpt lat="51.03469752406197" lon="2.372118379754678"><ele>5.0</ele><time>2026-04-04T10:46:02Z</time></trkpt><trkpt lat="51.03463535945094" lon="2.372087021381182"><ele>5.285714285714286</ele><time>2026-04-04T10:46:04Z</time></trkpt><trkpt lat="51.0345661795127" lon="2.372071102899139"><ele>5.571428571428571</ele><time>2026-04-04T10:46:06Z</time></trkpt><trkpt lat="51.03449526163823" lon="2.3720440717529843"><ele>5.857142857142858</ele><time>2026-04-04T10:46:08Z</time></trkpt><trkpt lat="51.03441900345665" lon="2.372009360687617"><ele>6.142857142857142</ele><time>2026-04-04T10:46:10Z</time></trkpt><trkpt lat="51.034340233785" lon="2.371989504130469"><ele>6.428571428571429</ele><time>2026-04-04T10:46:12Z</time></trkpt><trkpt lat="51.0342664119513" lon="2.3719584130731177"><ele>6.714285714285714</ele><time>2026-04-04T10:46:14Z</time></trkpt><trkpt lat="51.034200435403456" lon="2.371931752882289"><ele>7.0</ele><time>2026-04-04T10:46:16Z</time></trkpt><trkpt lat="51.03411187840534" lon="2.3718992679812394"><ele>7.000000000000001</ele><time>2026-04-04T10:46:19Z</time></trkpt><trkpt lat="51.03404469023734" lon="2.3718740115113994"><ele>7.0</ele><time>2026-04-04T10:46:21Z</time></trkpt><trkpt lat="51.033972170302725" lon="2.3718382775077376"><ele>7.0</ele><time>2026-04-04T10:46:23Z</time></trkpt><trkpt lat="51.033898798832816" lon="2.371812720832219"><ele>7.0</ele><time>2026-04-04T10:46:25Z</time></trkpt><trkpt lat="51.033822200488984" lon="2.3717886897806117"><ele>7.000000000000001</ele><time>2026-04-04T10:46:27Z</time></trkpt><trkpt lat="51.03374550543865" lon="2.371758979705362"><ele>7.0</ele><time>2026-04-04T10:46:29Z</time></trkpt><trkpt lat="51.0336648073515" lon="2.371723269611896"><ele>7.000000000000001</ele><time>2026-04-04T10:46:31Z</time></trkpt><trkpt lat="51.03359282880436" lon="2.3716931544613287"><ele>7.0</ele><time>2026-04-04T10:46:33Z</time></trkpt><trkpt lat="51.033519662156024" lon="2.3716577215176953"><ele>7.0</ele><time>2026-04-04T10:46:35Z</time></trkpt><trkpt lat="51.033440664584056" lon="2.3716301309510888"><ele>7.0</ele><time>2026-04-04T10:46:37Z</time></trkpt><trkpt lat="51.03336193994633" lon="2.371603022181047"><ele>7.000000000000001</ele><time>2026-04-04T10:46:39Z</time></trkpt><trkpt lat="51.033297250184404" lon="2.371555679403103"><ele>7.0</ele><time>2026-04-04T10:46:41Z</time></trkpt><trkpt lat="51.0332316926332" lon="2.371506276994675"><ele>6.833333333333334</ele><time>2026-04-04T10:46:43Z</time></trkpt><trkpt lat="51.03314530006071" lon="2.3715120026263268"><ele>6.666666666666667</ele><time>2026-04-04T10:46:45Z</time></trkpt><trkpt lat="51.03305801123045" lon="2.371497430229624"><ele>6.5</ele><time>2026-04-04T10:46:47Z</time></trkpt><trkpt lat="51.032963292446986" lon="2.371484358731318"><ele>6.333333333333334</ele><time>2026-04-04T10:46:49Z</time></trkpt><trkpt lat="51.03289716964466" lon="2.371483595070788"><ele>6.166666666666667</ele><time>2026-04-04T10:46:51Z</time></trkpt><trkpt lat="51.03282130868312" lon="2.371482991842671"><ele>6.0</ele><time>2026-04-04T10:46:54Z</time></trkpt><trkpt lat="51.03275897320313" lon="2.371539020330048"><ele>6.0</ele><time>2026-04-04T10:46:56Z</time></trkpt><trkpt lat="51.032691059152526" lon="2.371569631341307"><ele>6.0</ele><time>2026-04-04T10:46:58.001Z</time></trkpt><trkpt lat="51.032608290955864" lon="2.3715640868532413"><ele>6.0</ele><time>2026-04-04T10:47:00.001Z</time></trkpt><trkpt lat="51.032486742587515" lon="2.3715744461439376"><ele>6.0</ele><time>2026-04-04T10:47:02.001Z</time></trkpt><trkpt lat="51.03241391719605" lon="2.371580725775285"><ele>6.0</ele><time>2026-04-04T10:47:03.001Z</time></trkpt><trkpt lat="51.03227598301253" lon="2.3715933464874284"><ele>6.166666666666667</ele><time>2026-04-04T10:47:05.001Z</time></trkpt><trkpt lat="51.03220110926117" lon="2.371592415423666"><ele>6.333333333333334</ele><time>2026-04-04T10:47:07.001Z</time></trkpt><trkpt lat="51.03213412972223" lon="2.371579926851291"><ele>6.5</ele><time>2026-04-04T10:47:09.001Z</time></trkpt><trkpt lat="51.03206054389755" lon="2.3716142751259115"><ele>6.666666666666667</ele><time>2026-04-04T10:47:11.001Z</time></trkpt><trkpt lat="51.0320043866826" lon="2.371720138740136"><ele>6.833333333333334</ele><time>2026-04-04T10:47:13.001Z</time></trkpt><trkpt lat="51.0319069233021" lon="2.3717618121284954"><ele>7.0</ele><time>2026-04-04T10:47:15.001Z</time></trkpt><trkpt lat="51.031840846089494" lon="2.3717030230268143"><ele>7.000000000000001</ele><time>2026-04-04T10:47:16.001Z</time></trkpt><trkpt lat="51.031758554919385" lon="2.371713261663454"><ele>7.0</ele><time>2026-04-04T10:47:18.001Z</time></trkpt><trkpt lat="51.03168284525449" lon="2.371734671847277"><ele>7.0</ele><time>2026-04-04T10:47:20.001Z</time></trkpt><trkpt lat="51.03161505192928" lon="2.3717128732988098"><ele>7.0</ele><time>2026-04-04T10:47:22.001Z</time></trkpt><trkpt lat="51.03160921880172" lon="2.3715935804588475"><ele>7.000000000000001</ele><time>2026-04-04T10:47:25Z</time></trkpt><trkpt lat="51.03154700454231" lon="2.371544809402452"><ele>7.0</ele><time>2026-04-04T10:47:27Z</time></trkpt><trkpt lat="51.031484562005424" lon="2.371474315209113"><ele>6.833333333333334</ele><time>2026-04-04T10:47:29Z</time></trkpt><trkpt lat="51.03141221468183" lon="2.3713786374832906"><ele>6.666666666666667</ele><time>2026-04-04T10:47:31Z</time></trkpt><trkpt lat="51.03133718986448" lon="2.371295536120989"><ele>6.5</ele><time>2026-04-04T10:47:34Z</time></trkpt><trkpt lat="51.031269715253046" lon="2.3712372178981833"><ele>6.333333333333334</ele><time>2026-04-04T10:47:36Z</time></trkpt><trkpt lat="51.03119445643283" lon="2.371221020376865"><ele>6.166666666666667</ele><time>2026-04-04T10:47:38Z</time></trkpt><trkpt lat="51.031102997141566" lon="2.37128259489479"><ele>6.0</ele><time>2026-04-04T10:47:39Z</time></trkpt><trkpt lat="51.031025395136346" lon="2.3713345782221245"><ele>5.999999999999999</ele><time>2026-04-04T10:47:40Z</time></trkpt><trkpt lat="51.030963806787234" lon="2.3713671688189986"><ele>6.0</ele><time>2026-04-04T10:47:41Z</time></trkpt><trkpt lat="51.03088365134824" lon="2.3713471679609843"><ele>6.0</ele><time>2026-04-04T10:47:43Z</time></trkpt><trkpt lat="51.03083255045109" lon="2.3712862302805218"><ele>6.0</ele><time>2026-04-04T10:47:59Z</time></trkpt><trkpt lat="51.030798482785464" lon="2.3711674156454663"><ele>6.0</ele><time>2026-04-04T10:48:02Z</time></trkpt><trkpt lat="51.03071643193851" lon="2.371166131679008"><ele>5.999999999999999</ele><time>2026-04-04T10:48:04Z</time></trkpt><trkpt lat="51.03064501136011" lon="2.371187920492337"><ele>6.0</ele><time>2026-04-04T10:48:06Z</time></trkpt><trkpt lat="51.0305619586347" lon="2.371191436936477"><ele>6.0</ele><time>2026-04-04T10:48:08Z</time></trkpt><trkpt lat="51.030473829570866" lon="2.371177692827884"><ele>6.0</ele><time>2026-04-04T10:48:10Z</time></trkpt><trkpt lat="51.03040041777191" lon="2.371168004199737"><ele>6.0</ele><time>2026-04-04T10:48:12Z</time></trkpt><trkpt lat="51.03032238525973" lon="2.371179672935805"><ele>6.0</ele><time>2026-04-04T10:48:14Z</time></trkpt><trkpt lat="51.030258042877904" lon="2.3711820020571834"><ele>6.0</ele><time>2026-04-04T10:48:16Z</time></trkpt><trkpt lat="51.03019481998024" lon="2.3711943833011104"><ele>6.0</ele><time>2026-04-04T10:48:18Z</time></trkpt><trkpt lat="51.03009025653601" lon="2.371190224573614"><ele>5.999999999999999</ele><time>2026-04-04T10:48:21Z</time></trkpt><trkpt lat="51.03002504856715" lon="2.3712220696916817"><ele>6.0</ele><time>2026-04-04T10:48:23Z</time></trkpt><trkpt lat="51.02993514606637" lon="2.3712614642606016"><ele>6.0</ele><time>2026-04-04T10:48:26Z</time></trkpt><trkpt lat="51.0298671886217" lon="2.37128741340299"><ele>6.0</ele><time>2026-04-04T10:48:28Z</time></trkpt><trkpt lat="51.02980614870071" lon="2.371321807380274"><ele>6.0</ele><time>2026-04-04T10:48:30Z</time></trkpt><trkpt lat="51.02973187048413" lon="2.3713665627437988"><ele>5.999999999999999</ele><time>2026-04-04T10:48:33Z</time></trkpt><trkpt lat="51.02966260266855" lon="2.3714039304852284"><ele>6.0</ele><time>2026-04-04T10:48:35.999Z</time></trkpt><trkpt lat="51.029579871862325" lon="2.3714449304920158"><ele>5.666666666666667</ele><time>2026-04-04T10:48:38.999Z</time></trkpt><trkpt lat="51.02949649391685" lon="2.3714813516525366"><ele>5.333333333333333</ele><time>2026-04-04T10:48:41.999Z</time></trkpt><trkpt lat="51.0294217940902" lon="2.371486262735879"><ele>5.0</ele><time>2026-04-04T10:48:43.999Z</time></trkpt><trkpt lat="51.0293628874863" lon="2.3713904843324793"><ele>4.666666666666666</ele><time>2026-04-04T10:48:45.999Z</time></trkpt><trkpt lat="51.0293367726392" lon="2.371250000605747"><ele>4.333333333333333</ele><time>2026-04-04T10:48:47.999Z</time></trkpt><trkpt lat="51.029329810763" lon="2.3710949500050447"><ele>4.0</ele><time>2026-04-04T10:48:49.999Z</time></trkpt><trkpt lat="51.02937437416261" lon="2.3709830185170793"><ele>3.9999999999999996</ele><time>2026-04-04T10:48:52.999Z</time></trkpt><trkpt lat="51.02941485694019" lon="2.3708796562560424"><ele>4.0</ele><time>2026-04-04T10:48:54.999Z</time></trkpt><trkpt lat="51.02939781372263" lon="2.370711827632918"><ele>4.0</ele><time>2026-04-04T10:48:56.999Z</time></trkpt><trkpt lat="51.02935684336263" lon="2.3706020766946403"><ele>4.0</ele><time>2026-04-04T10:48:58.999Z</time></trkpt><trkpt lat="51.02932213566544" lon="2.3704991133080524"><ele>3.9999999999999996</ele><time>2026-04-04T10:49:00.999Z</time></trkpt><trkpt lat="51.029295286575476" lon="2.3704053605604507"><ele>4.0</ele><time>2026-04-04T10:49:03.001Z</time></trkpt><trkpt lat="51.02925769764822" lon="2.3702613620079824"><ele>3.833333333333333</ele><time>2026-04-04T10:49:06.001Z</time></trkpt><trkpt lat="51.02924097134361" lon="2.370148352234271"><ele>3.6666666666666665</ele><time>2026-04-04T10:49:09.001Z</time></trkpt><trkpt lat="51.0292265436711" lon="2.3700299982116464"><ele>3.5</ele><time>2026-04-04T10:49:12.001Z</time></trkpt><trkpt lat="51.029206263029266" lon="2.3698951230353478"><ele>3.333333333333333</ele><time>2026-04-04T10:49:16Z</time></trkpt><trkpt lat="51.02918455732046" lon="2.3697731426836373"><ele>3.1666666666666665</ele><time>2026-04-04T10:49:19Z</time></trkpt><trkpt lat="51.029162716793955" lon="2.3696402576118167"><ele>3.0</ele><time>2026-04-04T10:49:22Z</time></trkpt><trkpt lat="51.02914920829413" lon="2.3695408033874337"><ele>3.1666666666666665</ele><time>2026-04-04T10:49:24Z</time></trkpt><trkpt lat="51.02913579907211" lon="2.369440419357965"><ele>3.333333333333333</ele><time>2026-04-04T10:49:26Z</time></trkpt><trkpt lat="51.02913225945731" lon="2.369321863866032"><ele>3.5</ele><time>2026-04-04T10:49:30Z</time></trkpt><trkpt lat="51.029111717611855" lon="2.369206879350356"><ele>3.6666666666666665</ele><time>2026-04-04T10:49:32Z</time></trkpt><trkpt lat="51.029074964490945" lon="2.369090070878541"><ele>3.833333333333333</ele><time>2026-04-04T10:49:34Z</time></trkpt><trkpt lat="51.02902342003365" lon="2.368968059529237"><ele>4.0</ele><time>2026-04-04T10:49:36Z</time></trkpt><trkpt lat="51.02896910136022" lon="2.3688745158930775"><ele>3.9999999999999996</ele><time>2026-04-04T10:49:38Z</time></trkpt><trkpt lat="51.028909110750014" lon="2.36878196677124"><ele>4.0</ele><time>2026-04-04T10:49:40Z</time></trkpt><trkpt lat="51.0288399849486" lon="2.3686999550205847"><ele>4.0</ele><time>2026-04-04T10:49:43Z</time></trkpt><trkpt lat="51.02878543197912" lon="2.3686215489857063"><ele>4.0</ele><time>2026-04-04T10:49:47Z</time></trkpt><trkpt lat="51.028729307708744" lon="2.3685422999486785"><ele>3.9999999999999996</ele><time>2026-04-04T10:50:17.999Z</time></trkpt><trkpt lat="51.02867384697248" lon="2.368456168943488"><ele>4.0</ele><time>2026-04-04T10:50:20.999Z</time></trkpt><trkpt lat="51.02860800459819" lon="2.3683552690937595"><ele>3.9999999999999996</ele><time>2026-04-04T10:50:23.999Z</time></trkpt><trkpt lat="51.02857533617049" lon="2.3682444604160815"><ele>4.0</ele><time>2026-04-04T10:50:25.999Z</time></trkpt><trkpt lat="51.02854221100386" lon="2.368062367079822"><ele>4.0</ele><time>2026-04-04T10:50:27.999Z</time></trkpt><trkpt lat="51.02851925325414" lon="2.36796315677262"><ele>4.0</ele><time>2026-04-04T10:50:28.999Z</time></trkpt><trkpt lat="51.028501252872005" lon="2.3678598826099106"><ele>3.9999999999999996</ele><time>2026-04-04T10:50:29.999Z</time></trkpt><trkpt lat="51.02843529024986" lon="2.3678009237820836"><ele>4.0</ele><time>2026-04-04T10:50:30.999Z</time></trkpt><trkpt lat="51.02838772305962" lon="2.3676309630152663"><ele>4.2</ele><time>2026-04-04T10:50:32.999Z</time></trkpt><trkpt lat="51.02834675640463" lon="2.367462477681366"><ele>4.4</ele><time>2026-04-04T10:50:34.999Z</time></trkpt><trkpt lat="51.02831459504237" lon="2.367301327612391"><ele>4.6</ele><time>2026-04-04T10:50:36.999Z</time></trkpt><trkpt lat="51.02829684930958" lon="2.3671680116856892"><ele>4.8</ele><time>2026-04-04T10:50:38.999Z</time></trkpt><trkpt lat="51.02826596709259" lon="2.3670331432094187"><ele>5.0</ele><time>2026-04-04T10:50:41.999Z</time></trkpt><trkpt lat="51.02826275996325" lon="2.3668900763863876"><ele>5.0</ele><time>2026-04-04T10:50:43.999Z</time></trkpt><trkpt lat="51.02824232204778" lon="2.3667728513839026"><ele>5.0</ele><time>2026-04-04T10:50:45.999Z</time></trkpt><trkpt lat="51.02823257393849" lon="2.3666503675565562"><ele>5.0</ele><time>2026-04-04T10:50:47.999Z</time></trkpt><trkpt lat="51.02821894652118" lon="2.3665299917879743"><ele>5.0</ele><time>2026-04-04T10:50:49.999Z</time></trkpt><trkpt lat="51.028162394433494" lon="2.3664266692523923"><ele>5.0</ele><time>2026-04-04T10:50:51.999Z</time></trkpt><trkpt lat="51.028081450276126" lon="2.3663887343730687"><ele>5.0</ele><time>2026-04-04T10:50:53.999Z</time></trkpt><trkpt lat="51.028000256527264" lon="2.3664169220629105"><ele>5.0</ele><time>2026-04-04T10:50:57.999Z</time></trkpt><trkpt lat="51.027933217061886" lon="2.3664480304093316"><ele>5.0</ele><time>2026-04-04T10:50:59.999Z</time></trkpt><trkpt lat="51.027868659004824" lon="2.3664737345164886"><ele>5.0</ele><time>2026-04-04T10:51:01.999Z</time></trkpt><trkpt lat="51.02779221391841" lon="2.3665083621519147"><ele>5.0</ele><time>2026-04-04T10:51:03.999Z</time></trkpt><trkpt lat="51.027701065084486" lon="2.366549048921962"><ele>5.0</ele><time>2026-04-04T10:51:06.999Z</time></trkpt><trkpt lat="51.02761586570605" lon="2.3665631829953524"><ele>5.0</ele><time>2026-04-04T10:51:10Z</time></trkpt><trkpt lat="51.02755109064522" lon="2.3665842730991304"><ele>5.0</ele><time>2026-04-04T10:51:12Z</time></trkpt><trkpt lat="51.02748392880671" lon="2.3665946058625402"><ele>5.0</ele><time>2026-04-04T10:51:14Z</time></trkpt><trkpt lat="51.02741262532829" lon="2.366614340214275"><ele>5.0</ele><time>2026-04-04T10:51:16Z</time></trkpt><trkpt lat="51.02733610172881" lon="2.3666322099601698"><ele>5.0</ele><time>2026-04-04T10:51:18Z</time></trkpt><trkpt lat="51.027252729532144" lon="2.366649399912966"><ele>5.0</ele><time>2026-04-04T10:51:20Z</time></trkpt><trkpt lat="51.02718300666425" lon="2.3667206599883386"><ele>5.0</ele><time>2026-04-04T10:51:22Z</time></trkpt><trkpt lat="51.02713136153279" lon="2.3668264292934884"><ele>4.857142857142857</ele><time>2026-04-04T10:51:24Z</time></trkpt><trkpt lat="51.02708391113092" lon="2.3669088666583886"><ele>4.714285714285714</ele><time>2026-04-04T10:51:26Z</time></trkpt><trkpt lat="51.02701032905319" lon="2.366943664060997"><ele>4.571428571428571</ele><time>2026-04-04T10:51:28Z</time></trkpt><trkpt lat="51.026938577660744" lon="2.3669470937935984"><ele>4.428571428571429</ele><time>2026-04-04T10:51:30Z</time></trkpt><trkpt lat="51.02686393575538" lon="2.366946362660344"><ele>4.285714285714286</ele><time>2026-04-04T10:51:32Z</time></trkpt><trkpt lat="51.02679158978896" lon="2.366940787756197"><ele>4.142857142857142</ele><time>2026-04-04T10:51:34Z</time></trkpt><trkpt lat="51.0267155784413" lon="2.3669247810995655"><ele>4.0</ele><time>2026-04-04T10:51:36Z</time></trkpt><trkpt lat="51.026636337061944" lon="2.3669246138094433"><ele>3.6666666666666665</ele><time>2026-04-04T10:51:38Z</time></trkpt><trkpt lat="51.02656275319091" lon="2.366916908016394"><ele>3.333333333333333</ele><time>2026-04-04T10:51:40Z</time></trkpt><trkpt lat="51.02649403882412" lon="2.3669147079896584"><ele>3.0</ele><time>2026-04-04T10:51:42Z</time></trkpt><trkpt lat="51.02642449175784" lon="2.3669173817823377"><ele>2.6666666666666665</ele><time>2026-04-04T10:51:44Z</time></trkpt><trkpt lat="51.02632448853052" lon="2.3669174407930305"><ele>2.333333333333333</ele><time>2026-04-04T10:51:47Z</time></trkpt><trkpt lat="51.02624935709978" lon="2.366915678443736"><ele>2.0</ele><time>2026-04-04T10:51:49Z</time></trkpt><trkpt lat="51.02617226902391" lon="2.366922116496775"><ele>2.0</ele><time>2026-04-04T10:51:51Z</time></trkpt><trkpt lat="51.02609426574586" lon="2.3668997767857674"><ele>1.9999999999999998</ele><time>2026-04-04T10:51:53Z</time></trkpt><trkpt lat="51.02602010180006" lon="2.3668966707170234"><ele>2.0</ele><time>2026-04-04T10:51:55Z</time></trkpt><trkpt lat="51.02595264333788" lon="2.3669093544957063"><ele>2.0</ele><time>2026-04-04T10:51:57Z</time></trkpt><trkpt lat="51.025877549995215" lon="2.366891141439752"><ele>1.9999999999999998</ele><time>2026-04-04T10:52:00Z</time></trkpt><trkpt lat="51.025878561816214" lon="2.366773164595283"><ele>2.0</ele><time>2026-04-04T10:52:03Z</time></trkpt><trkpt lat="51.025867429852745" lon="2.3666532728655034"><ele>2.0</ele><time>2026-04-04T10:52:06Z</time></trkpt><trkpt lat="51.02587078340067" lon="2.3665486193896372"><ele>2.0</ele><time>2026-04-04T10:52:08Z</time></trkpt><trkpt lat="51.025870302773335" lon="2.3664478678279433"><ele>1.9999999999999998</ele><time>2026-04-04T10:52:10Z</time></trkpt><trkpt lat="51.025869653389314" lon="2.3663308227115945"><ele>2.0</ele><time>2026-04-04T10:52:11.999Z</time></trkpt><trkpt lat="51.02584815903085" lon="2.366197061794568"><ele>2.0</ele><time>2026-04-04T10:52:14.999Z</time></trkpt><trkpt lat="51.02578379601533" lon="2.366203122506781"><ele>1.9999999999999998</ele><time>2026-04-04T10:52:16.999Z</time></trkpt><trkpt lat="51.02571645033049" lon="2.3661839140643144"><ele>2.0</ele><time>2026-04-04T10:52:18.999Z</time></trkpt><trkpt lat="51.025670523556556" lon="2.3661116779151397"><ele>2.0</ele><time>2026-04-04T10:52:20.999Z</time></trkpt><trkpt lat="51.025682708219954" lon="2.3660023475466723"><ele>1.9999999999999998</ele><time>2026-04-04T10:52:22.999Z</time></trkpt><trkpt lat="51.02569933971437" lon="2.3658798752857955"><ele>2.0</ele><time>2026-04-04T10:52:24.999Z</time></trkpt><trkpt lat="51.02570603755393" lon="2.3657354800380257"><ele>2.0</ele><time>2026-04-04T10:52:26.999Z</time></trkpt><trkpt lat="51.02570736354998" lon="2.3655867607815573"><ele>2.0</ele><time>2026-04-04T10:52:28.999Z</time></trkpt><trkpt lat="51.02573503572164" lon="2.3654519484011547"><ele>1.9999999999999998</ele><time>2026-04-04T10:52:30.999Z</time></trkpt><trkpt lat="51.025757579455494" lon="2.365317901602061"><ele>2.0</ele><time>2026-04-04T10:52:33.999Z</time></trkpt><trkpt lat="51.02574625002127" lon="2.3651776971915055"><ele>2.1666666666666665</ele><time>2026-04-04T10:52:36.999Z</time></trkpt><trkpt lat="51.025769266017015" lon="2.365036263560189"><ele>2.333333333333333</ele><time>2026-04-04T10:52:38.999Z</time></trkpt><trkpt lat="51.025762815603265" lon="2.3649132989887605"><ele>2.5</ele><time>2026-04-04T10:52:39.999Z</time></trkpt><trkpt lat="51.02577155142722" lon="2.3647294856582945"><ele>2.6666666666666665</ele><time>2026-04-04T10:52:41.999Z</time></trkpt><trkpt lat="51.02576304701872" lon="2.364616664937746"><ele>2.8333333333333335</ele><time>2026-04-04T10:52:42.999Z</time></trkpt><trkpt lat="51.02577067207292" lon="2.36451415231089"><ele>3.0</ele><time>2026-04-04T10:52:43.999Z</time></trkpt><trkpt lat="51.025784956050856" lon="2.364331831735506"><ele>3.0</ele><time>2026-04-04T10:52:45.999Z</time></trkpt><trkpt lat="51.02580325223472" lon="2.3642325786802756"><ele>3.0</ele><time>2026-04-04T10:52:46.999Z</time></trkpt><trkpt lat="51.02581103500644" lon="2.364061109126121"><ele>3.0</ele><time>2026-04-04T10:52:48.999Z</time></trkpt><trkpt lat="51.025810759343806" lon="2.363893137533102"><ele>3.0</ele><time>2026-04-04T10:52:50.999Z</time></trkpt><trkpt lat="51.02581118744462" lon="2.363748330123524"><ele>3.0</ele><time>2026-04-04T10:52:52.999Z</time></trkpt><trkpt lat="51.02582497522261" lon="2.363621444463458"><ele>3.0</ele><time>2026-04-04T10:52:54.999Z</time></trkpt><trkpt lat="51.02583899596098" lon="2.3634750136901213"><ele>3.0</ele><time>2026-04-04T10:52:56.999Z</time></trkpt><trkpt lat="51.02585458807919" lon="2.3633422852731396"><ele>3.0</ele><time>2026-04-04T10:52:58.999Z</time></trkpt><trkpt lat="51.02585757472581" lon="2.363210306821033"><ele>3.0</ele><time>2026-04-04T10:53:00.999Z</time></trkpt><trkpt lat="51.02588174726928" lon="2.3631149732419225"><ele>3.0</ele><time>2026-04-04T10:53:02.999Z</time></trkpt><trkpt lat="51.02592106186122" lon="2.3630153152609656"><ele>3.0</ele><time>2026-04-04T10:53:04.999Z</time></trkpt><trkpt lat="51.025955761196045" lon="2.362898804343109"><ele>3.0</ele><time>2026-04-04T10:53:08.999Z</time></trkpt><trkpt lat="51.025849518644605" lon="2.362743359008477"><ele>3.0</ele><time>2026-04-04T10:53:09.999Z</time></trkpt><trkpt lat="51.02584156021094" lon="2.362622750941508"><ele>3.0</ele><time>2026-04-04T10:53:11.999Z</time></trkpt><trkpt lat="51.02582050728629" lon="2.362479323960897"><ele>3.0</ele><time>2026-04-04T10:53:13.999Z</time></trkpt><trkpt lat="51.0257975893074" lon="2.362327163078609"><ele>3.0</ele><time>2026-04-04T10:53:16Z</time></trkpt><trkpt lat="51.02575732344284" lon="2.3621735362829424"><ele>2.8</ele><time>2026-04-04T10:53:18Z</time></trkpt><trkpt lat="51.0258890234964" lon="2.362010062826077"><ele>2.5999999999999996</ele><time>2026-04-04T10:53:19Z</time></trkpt><trkpt lat="51.02585760780428" lon="2.361886929265423"><ele>2.4000000000000004</ele><time>2026-04-04T10:53:21Z</time></trkpt><trkpt lat="51.02583015317232" lon="2.3617793210004145"><ele>2.2</ele><time>2026-04-04T10:53:23Z</time></trkpt><trkpt lat="51.02580149626822" lon="2.3616670004527953"><ele>2.0</ele><time>2026-04-04T10:53:25Z</time></trkpt><trkpt lat="51.02571256922674" lon="2.3614594576240777"><ele>2.4000000000000004</ele><time>2026-04-04T10:53:32Z</time></trkpt><trkpt lat="51.025661986372626" lon="2.3613420882557388"><ele>2.8000000000000003</ele><time>2026-04-04T10:53:34Z</time></trkpt><trkpt lat="51.02563976902657" lon="2.3612152852573582"><ele>3.2</ele><time>2026-04-04T10:53:36Z</time></trkpt><trkpt lat="51.02561370925651" lon="2.361066554089228"><ele>3.6</ele><time>2026-04-04T10:53:38Z</time></trkpt><trkpt lat="51.025582152760194" lon="2.360930593341827"><ele>4.0</ele><time>2026-04-04T10:53:40Z</time></trkpt><trkpt lat="51.02554110912967" lon="2.3607828054541935"><ele>3.9999999999999996</ele><time>2026-04-04T10:53:42Z</time></trkpt><trkpt lat="51.025548946152426" lon="2.360655395686701"><ele>4.0</ele><time>2026-04-04T10:53:44Z</time></trkpt><trkpt lat="51.025627875910146" lon="2.3606429548173424"><ele>4.0</ele><time>2026-04-04T10:53:47Z</time></trkpt><trkpt lat="51.025691750718615" lon="2.3606120178184202"><ele>4.0</ele><time>2026-04-04T10:53:50Z</time></trkpt><trkpt lat="51.02576134742868" lon="2.3605616079780107"><ele>3.9999999999999996</ele><time>2026-04-04T10:53:53Z</time></trkpt><trkpt lat="51.02578135650569" lon="2.3604314461530276"><ele>4.0</ele><time>2026-04-04T10:53:56Z</time></trkpt><trkpt lat="51.02586162793293" lon="2.360338303435777"><ele>4.166666666666666</ele><time>2026-04-04T10:53:59Z</time></trkpt><trkpt lat="51.02592702646349" lon="2.3602989280755264"><ele>4.333333333333333</ele><time>2026-04-04T10:54:01Z</time></trkpt><trkpt lat="51.025988817480226" lon="2.360270951178136"><ele>4.5</ele><time>2026-04-04T10:54:03Z</time></trkpt><trkpt lat="51.02607854161402" lon="2.360224927612687"><ele>4.666666666666667</ele><time>2026-04-04T10:54:06Z</time></trkpt><trkpt lat="51.02614800328396" lon="2.360170073989398"><ele>4.833333333333334</ele><time>2026-04-04T10:54:09Z</time></trkpt><trkpt lat="51.02622557156449" lon="2.3601311371033966"><ele>5.0</ele><time>2026-04-04T10:54:12Z</time></trkpt><trkpt lat="51.02631226994922" lon="2.360079330016357"><ele>5.0</ele><time>2026-04-04T10:54:14.999Z</time></trkpt><trkpt lat="51.02638929660854" lon="2.36003899170583"><ele>5.0</ele><time>2026-04-04T10:54:17.999Z</time></trkpt><trkpt lat="51.02645756623971" lon="2.360022027018382"><ele>5.0</ele><time>2026-04-04T10:54:20.999Z</time></trkpt><trkpt lat="51.02650558784126" lon="2.359935385888975"><ele>5.0</ele><time>2026-04-04T10:54:23.999Z</time></trkpt><trkpt lat="51.02656563787126" lon="2.3598422344956407"><ele>5.0</ele><time>2026-04-04T10:54:25.999Z</time></trkpt><trkpt lat="51.02664739910967" lon="2.359776074200782"><ele>5.0</ele><time>2026-04-04T10:54:27.999Z</time></trkpt><trkpt lat="51.02671621460702" lon="2.359661307233483"><ele>5.0</ele><time>2026-04-04T10:54:29.999Z</time></trkpt><trkpt lat="51.02673271217911" lon="2.3595076321778334"><ele>5.0</ele><time>2026-04-04T10:54:31.999Z</time></trkpt><trkpt lat="51.02669161894684" lon="2.359353693599635"><ele>5.0</ele><time>2026-04-04T10:54:33.999Z</time></trkpt><trkpt lat="51.026630266558996" lon="2.359206947055699"><ele>5.0</ele><time>2026-04-04T10:54:35.999Z</time></trkpt><trkpt lat="51.02659443407043" lon="2.359075789275792"><ele>5.0</ele><time>2026-04-04T10:54:37.999Z</time></trkpt><trkpt lat="51.02655879395607" lon="2.358952171564832"><ele>5.0</ele><time>2026-04-04T10:54:39.999Z</time></trkpt><trkpt lat="51.02652596251914" lon="2.358847618815596"><ele>5.0</ele><time>2026-04-04T10:54:41.999Z</time></trkpt><trkpt lat="51.02649927278277" lon="2.3587335667539024"><ele>5.0</ele><time>2026-04-04T10:54:43.999Z</time></trkpt><trkpt lat="51.02647223295758" lon="2.3586169917774713"><ele>5.0</ele><time>2026-04-04T10:54:45.999Z</time></trkpt><trkpt lat="51.02645104350954" lon="2.3584834098752454"><ele>5.0</ele><time>2026-04-04T10:54:47.999Z</time></trkpt><trkpt lat="51.02643448166167" lon="2.3583660560387143"><ele>5.0</ele><time>2026-04-04T10:54:49.999Z</time></trkpt><trkpt lat="51.02641422166844" lon="2.358262172035376"><ele>5.0</ele><time>2026-04-04T10:54:51.999Z</time></trkpt><trkpt lat="51.02639083087016" lon="2.3581430393272687"><ele>5.0</ele><time>2026-04-04T10:54:53.999Z</time></trkpt><trkpt lat="51.02636291643969" lon="2.358027484125362"><ele>5.0</ele><time>2026-04-04T10:54:55.999Z</time></trkpt><trkpt lat="51.026334277474675" lon="2.3579027782321336"><ele>5.0</ele><time>2026-04-04T10:54:57.999Z</time></trkpt><trkpt lat="51.026312972360124" lon="2.3577774911478317"><ele>5.0</ele><time>2026-04-04T10:54:59.999Z</time></trkpt><trkpt lat="51.026286125906935" lon="2.35766681037193"><ele>5.0</ele><time>2026-04-04T10:55:01.999Z</time></trkpt><trkpt lat="51.02626150417685" lon="2.3575506171918676"><ele>5.0</ele><time>2026-04-04T10:55:03.999Z</time></trkpt><trkpt lat="51.0262373233014" lon="2.357440159653543"><ele>5.0</ele><time>2026-04-04T10:55:05.999Z</time></trkpt><trkpt lat="51.026208815482704" lon="2.3573292041721117"><ele>5.0</ele><time>2026-04-04T10:55:07.999Z</time></trkpt><trkpt lat="51.02618453904609" lon="2.3572175903272345"><ele>5.0</ele><time>2026-04-04T10:55:09.999Z</time></trkpt><trkpt lat="51.026159429368" lon="2.3571098501105903"><ele>5.0</ele><time>2026-04-04T10:55:11.999Z</time></trkpt><trkpt lat="51.02613707637951" lon="2.3569995129523056"><ele>5.0</ele><time>2026-04-04T10:55:14.999Z</time></trkpt><trkpt lat="51.02611238461201" lon="2.356879563866736"><ele>5.0</ele><time>2026-04-04T10:55:16.999Z</time></trkpt><trkpt lat="51.02609413858556" lon="2.35677325751158"><ele>4.6</ele><time>2026-04-04T10:55:18.999Z</time></trkpt><trkpt lat="51.02607085746948" lon="2.3566718163797673"><ele>4.2</ele><time>2026-04-04T10:55:23Z</time></trkpt><trkpt lat="51.02604864893388" lon="2.356536428362249"><ele>3.8</ele><time>2026-04-04T10:55:26Z</time></trkpt><trkpt lat="51.02602744326106" lon="2.3564367758773717"><ele>3.4</ele><time>2026-04-04T10:55:28Z</time></trkpt><trkpt lat="51.02600286396466" lon="2.3563418648150964"><ele>3.0</ele><time>2026-04-04T10:55:30Z</time></trkpt><trkpt lat="51.02590688534825" lon="2.356087750709071"><ele>3.0</ele><time>2026-04-04T10:55:32Z</time></trkpt><trkpt lat="51.02588274823064" lon="2.3559768553387075"><ele>3.0</ele><time>2026-04-04T10:55:34Z</time></trkpt><trkpt lat="51.02585868515558" lon="2.355864327994645"><ele>3.0</ele><time>2026-04-04T10:55:36Z</time></trkpt><trkpt lat="51.02583522930742" lon="2.3557536928386402"><ele>3.0</ele><time>2026-04-04T10:55:38Z</time></trkpt><trkpt lat="51.025808700995924" lon="2.355632111287071"><ele>3.0</ele><time>2026-04-04T10:55:40Z</time></trkpt><trkpt lat="51.02578314818331" lon="2.3555134594367346"><ele>3.0</ele><time>2026-04-04T10:55:42Z</time></trkpt><trkpt lat="51.02575878692152" lon="2.3553935586894457"><ele>3.0</ele><time>2026-04-04T10:55:44Z</time></trkpt><trkpt lat="51.025729040841895" lon="2.35527493934506"><ele>3.0</ele><time>2026-04-04T10:55:46Z</time></trkpt><trkpt lat="51.02570482855329" lon="2.355165353889846"><ele>3.0</ele><time>2026-04-04T10:55:48Z</time></trkpt><trkpt lat="51.02568304309776" lon="2.3550549323110634"><ele>3.0</ele><time>2026-04-04T10:55:50Z</time></trkpt><trkpt lat="51.025687270751675" lon="2.3549021006610755"><ele>3.0</ele><time>2026-04-04T10:55:53Z</time></trkpt><trkpt lat="51.025663518774955" lon="2.354797734724601"><ele>3.0</ele><time>2026-04-04T10:55:55Z</time></trkpt><trkpt lat="51.0256419844067" lon="2.3546854546197977"><ele>3.0</ele><time>2026-04-04T10:55:57Z</time></trkpt><trkpt lat="51.02560572717581" lon="2.3545720366083733"><ele>3.0</ele><time>2026-04-04T10:55:59Z</time></trkpt><trkpt lat="51.02557709321778" lon="2.354455105989183"><ele>3.0</ele><time>2026-04-04T10:56:01Z</time></trkpt><trkpt lat="51.02554543556871" lon="2.3543438868409936"><ele>3.0</ele><time>2026-04-04T10:56:03Z</time></trkpt><trkpt lat="51.02551504606083" lon="2.3542198147704094"><ele>3.0</ele><time>2026-04-04T10:56:06Z</time></trkpt><trkpt lat="51.025488339678354" lon="2.3540965071117195"><ele>3.0</ele><time>2026-04-04T10:56:09Z</time></trkpt><trkpt lat="51.02546049460476" lon="2.353995798304683"><ele>3.0</ele><time>2026-04-04T10:56:11Z</time></trkpt><trkpt lat="51.02543791294678" lon="2.3538730274408017"><ele>3.0</ele><time>2026-04-04T10:56:14Z</time></trkpt><trkpt lat="51.02541505692349" lon="2.3537546341721383"><ele>3.0</ele><time>2026-04-04T10:56:15Z</time></trkpt><trkpt lat="51.025391430636965" lon="2.353629801949894"><ele>3.0</ele><time>2026-04-04T10:56:16.999Z</time></trkpt><trkpt lat="51.02536101760753" lon="2.3535089973816343"><ele>3.0</ele><time>2026-04-04T10:56:18.999Z</time></trkpt><trkpt lat="51.02532621317862" lon="2.353340597251135"><ele>3.0</ele><time>2026-04-04T10:56:21.999Z</time></trkpt><trkpt lat="51.02529917752178" lon="2.35320019819506"><ele>3.0</ele><time>2026-04-04T10:56:24.999Z</time></trkpt><trkpt lat="51.02526261065835" lon="2.353064364442422"><ele>3.0</ele><time>2026-04-04T10:56:26.999Z</time></trkpt><trkpt lat="51.02523908697952" lon="2.3529217059185967"><ele>3.0</ele><time>2026-04-04T10:56:29.999Z</time></trkpt><trkpt lat="51.02521932702027" lon="2.3528253534306574"><ele>3.0</ele><time>2026-04-04T10:56:30.999Z</time></trkpt><trkpt lat="51.02521906448771" lon="2.3527006758859708"><ele>3.0</ele><time>2026-04-04T10:56:32.999Z</time></trkpt><trkpt lat="51.025248338736745" lon="2.3525705744895853"><ele>3.0</ele><time>2026-04-04T10:56:35.999Z</time></trkpt><trkpt lat="51.02532211023378" lon="2.352545091694349"><ele>3.1666666666666665</ele><time>2026-04-04T10:56:37.999Z</time></trkpt><trkpt lat="51.02541087868544" lon="2.3524799173496542"><ele>3.333333333333333</ele><time>2026-04-04T10:56:40.999Z</time></trkpt><trkpt lat="51.025488174486014" lon="2.3524232114083374"><ele>3.5</ele><time>2026-04-04T10:56:42.999Z</time></trkpt><trkpt lat="51.0255526587958" lon="2.3523733404408262"><ele>3.6666666666666665</ele><time>2026-04-04T10:56:44.999Z</time></trkpt><trkpt lat="51.025620800570245" lon="2.3523239155078266"><ele>3.833333333333333</ele><time>2026-04-04T10:56:46.999Z</time></trkpt><trkpt lat="51.02570561178035" lon="2.3522794136754084"><ele>4.0</ele><time>2026-04-04T10:56:48.999Z</time></trkpt><trkpt lat="51.025777167622905" lon="2.3522359893723364"><ele>3.6666666666666665</ele><time>2026-04-04T10:56:50.999Z</time></trkpt><trkpt lat="51.02586456769117" lon="2.352166688876578"><ele>3.333333333333333</ele><time>2026-04-04T10:56:52.999Z</time></trkpt><trkpt lat="51.025942448858906" lon="2.3521382337934904"><ele>3.0</ele><time>2026-04-04T10:56:54.999Z</time></trkpt><trkpt lat="51.026002757089906" lon="2.3520946998919445"><ele>2.6666666666666665</ele><time>2026-04-04T10:56:57.999Z</time></trkpt><trkpt lat="51.02600344732015" lon="2.3519797573833445"><ele>2.333333333333333</ele><time>2026-04-04T10:56:59.999Z</time></trkpt><trkpt lat="51.025959806909945" lon="2.3518647866538487"><ele>2.0</ele><time>2026-04-04T10:57:02.999Z</time></trkpt><trkpt lat="51.02602252892802" lon="2.3518328565897013"><ele>1.9999999999999998</ele><time>2026-04-04T10:57:05.999Z</time></trkpt><trkpt lat="51.026070908390764" lon="2.3517679496754376"><ele>2.0</ele><time>2026-04-04T10:57:07.999Z</time></trkpt><trkpt lat="51.02608362813001" lon="2.351627969700286"><ele>2.0</ele><time>2026-04-04T10:57:09.999Z</time></trkpt><trkpt lat="51.02607455680789" lon="2.3515073548205825"><ele>2.0</ele><time>2026-04-04T10:57:12.999Z</time></trkpt><trkpt lat="51.026062749787975" lon="2.351382807170671"><ele>1.9999999999999998</ele><time>2026-04-04T10:57:14.999Z</time></trkpt><trkpt lat="51.02604361093011" lon="2.351269347625784"><ele>2.0</ele><time>2026-04-04T10:57:16.999Z</time></trkpt><trkpt lat="51.02603095741805" lon="2.351140678052425"><ele>2.1666666666666665</ele><time>2026-04-04T10:57:18.999Z</time></trkpt><trkpt lat="51.02595301381042" lon="2.3511620521967327"><ele>2.333333333333333</ele><time>2026-04-04T10:57:20.999Z</time></trkpt><trkpt lat="51.025870627360185" lon="2.351163474510348"><ele>2.5</ele><time>2026-04-04T10:57:22.999Z</time></trkpt><trkpt lat="51.02577837996961" lon="2.351185132655613"><ele>2.6666666666666665</ele><time>2026-04-04T10:57:24.999Z</time></trkpt><trkpt lat="51.025696858563784" lon="2.351214470822566"><ele>2.8333333333333335</ele><time>2026-04-04T10:57:27Z</time></trkpt><trkpt lat="51.02563227511359" lon="2.351262195132608"><ele>3.0</ele><time>2026-04-04T10:57:29Z</time></trkpt><trkpt lat="51.025562433462895" lon="2.3512629880308813"><ele>2.9999999999999996</ele><time>2026-04-04T10:57:31Z</time></trkpt><trkpt lat="51.02553434205778" lon="2.3511397954755235"><ele>3.0</ele><time>2026-04-04T10:57:33Z</time></trkpt><trkpt lat="51.0255300973317" lon="2.351022407463252"><ele>3.0</ele><time>2026-04-04T10:57:35Z</time></trkpt><trkpt lat="51.02551527716261" lon="2.350913698587287"><ele>3.0</ele><time>2026-04-04T10:57:37Z</time></trkpt><trkpt lat="51.02550108298184" lon="2.350801140019876"><ele>3.0</ele><time>2026-04-04T10:57:39Z</time></trkpt><trkpt lat="51.025474816412654" lon="2.3506961588371245"><ele>2.9999999999999996</ele><time>2026-04-04T10:57:41Z</time></trkpt><trkpt lat="51.02548495349674" lon="2.350571887636038"><ele>3.0</ele><time>2026-04-04T10:57:44Z</time></trkpt><trkpt lat="51.025444880947276" lon="2.350468937246332"><ele>2.9999999999999996</ele><time>2026-04-04T10:57:46Z</time></trkpt><trkpt lat="51.02542790922441" lon="2.350339700858569"><ele>3.0</ele><time>2026-04-04T10:57:49Z</time></trkpt><trkpt lat="51.02541125654811" lon="2.350236638358981"><ele>3.0</ele><time>2026-04-04T10:57:52Z</time></trkpt><trkpt lat="51.02539768879786" lon="2.350129191043475"><ele>3.0</ele><time>2026-04-04T10:57:56Z</time></trkpt><trkpt lat="51.02537816392697" lon="2.350232226366886"><ele>3.0</ele><time>2026-04-04T10:58:04Z</time></trkpt><trkpt lat="51.025393336086864" lon="2.350349647852737"><ele>2.9999999999999996</ele><time>2026-04-04T10:58:09Z</time></trkpt><trkpt lat="51.02538976702924" lon="2.3504689884594496"><ele>3.0</ele><time>2026-04-04T10:58:14Z</time></trkpt><trkpt lat="51.025410338773" lon="2.3505860111868144"><ele>2.9999999999999996</ele><time>2026-04-04T10:58:20Z</time></trkpt><trkpt lat="51.02534135800692" lon="2.350639106471337"><ele>3.0</ele><time>2026-04-04T10:58:24.999Z</time></trkpt><trkpt lat="51.02533414252515" lon="2.3505366520702897"><ele>3.0</ele><time>2026-04-04T10:58:28.999Z</time></trkpt><trkpt lat="51.02535870122354" lon="2.350437912684954"><ele>3.0</ele><time>2026-04-04T11:01:08.999Z</time></trkpt><trkpt lat="51.02539969782506" lon="2.350346873515464"><ele>3.0</ele><time>2026-04-04T11:01:12.999Z</time></trkpt><trkpt lat="51.02537771813726" lon="2.3502273157765563"><ele>2.9999999999999996</ele><time>2026-04-04T11:01:16.999Z</time></trkpt><trkpt lat="51.025439275438266" lon="2.3501518912920774"><ele>3.0</ele><time>2026-04-04T11:01:21.999Z</time></trkpt><trkpt lat="51.025494211163874" lon="2.350098170911123"><ele>2.9999999999999996</ele><time>2026-04-04T11:01:25.999Z</time></trkpt><trkpt lat="51.02554558057859" lon="2.3500354880565864"><ele>3.0</ele><time>2026-04-04T11:01:28.999Z</time></trkpt><trkpt lat="51.025596616523075" lon="2.349956075738927"><ele>3.0</ele><time>2026-04-04T11:01:31.999Z</time></trkpt><trkpt lat="51.02564954620149" lon="2.3498821718392224"><ele>3.0</ele><time>2026-04-04T11:01:34.999Z</time></trkpt><trkpt lat="51.02569805146127" lon="2.349805116431371"><ele>3.0</ele><time>2026-04-04T11:01:37.999Z</time></trkpt><trkpt lat="51.025755647683575" lon="2.3497294914653337"><ele>2.9999999999999996</ele><time>2026-04-04T11:01:41Z</time></trkpt><trkpt lat="51.02578448580798" lon="2.349627369422414"><ele>3.0</ele><time>2026-04-04T11:01:44Z</time></trkpt><trkpt lat="51.02585290416269" lon="2.3495676665889285"><ele>3.2857142857142856</ele><time>2026-04-04T11:01:47Z</time></trkpt><trkpt lat="51.02592054583832" lon="2.3495451055160728"><ele>3.571428571428571</ele><time>2026-04-04T11:01:50Z</time></trkpt><trkpt lat="51.02598236315989" lon="2.349477258246801"><ele>3.8571428571428568</ele><time>2026-04-04T11:01:54Z</time></trkpt><trkpt lat="51.026043827644415" lon="2.349413065293243"><ele>4.142857142857142</ele><time>2026-04-04T11:01:57Z</time></trkpt><trkpt lat="51.02610294742565" lon="2.3493258501955423"><ele>4.428571428571429</ele><time>2026-04-04T11:02:00Z</time></trkpt><trkpt lat="51.02616077400254" lon="2.3492802133032513"><ele>4.714285714285714</ele><time>2026-04-04T11:02:03Z</time></trkpt><trkpt lat="51.02622295028563" lon="2.349201223651711"><ele>5.0</ele><time>2026-04-04T11:02:06Z</time></trkpt><trkpt lat="51.026292927232014" lon="2.3491515024181466"><ele>5.0</ele><time>2026-04-04T11:02:09Z</time></trkpt><trkpt lat="51.02635950922903" lon="2.3490886717249904"><ele>5.0</ele><time>2026-04-04T11:02:12Z</time></trkpt><trkpt lat="51.02641753815537" lon="2.349003820095117"><ele>5.0</ele><time>2026-04-04T11:02:15Z</time></trkpt><trkpt lat="51.02647542560036" lon="2.3489440059577182"><ele>5.0</ele><time>2026-04-04T11:02:18Z</time></trkpt><trkpt lat="51.02653467984702" lon="2.3488896877132333"><ele>5.0</ele><time>2026-04-04T11:02:21Z</time></trkpt><trkpt lat="51.02658968606314" lon="2.3488362462467838"><ele>5.0</ele><time>2026-04-04T11:02:25Z</time></trkpt><trkpt lat="51.026573552654064" lon="2.3487246652282403"><ele>5.0</ele><time>2026-04-04T11:02:30.999Z</time></trkpt><trkpt lat="51.026578563911336" lon="2.348592179350854"><ele>4.833333333333334</ele><time>2026-04-04T11:02:34.999Z</time></trkpt><trkpt lat="51.026538359126974" lon="2.3485098325263696"><ele>4.666666666666667</ele><time>2026-04-04T11:02:37.999Z</time></trkpt><trkpt lat="51.026486698063245" lon="2.3484311666582367"><ele>4.5</ele><time>2026-04-04T11:02:40.999Z</time></trkpt><trkpt lat="51.026418142504326" lon="2.348350111975691"><ele>4.333333333333333</ele><time>2026-04-04T11:02:43.999Z</time></trkpt><trkpt lat="51.02633932277939" lon="2.348269311635669"><ele>4.166666666666666</ele><time>2026-04-04T11:02:46.999Z</time></trkpt><trkpt lat="51.02627481284333" lon="2.34822203788764"><ele>4.0</ele><time>2026-04-04T11:02:48.999Z</time></trkpt><trkpt lat="51.026181554465" lon="2.3481913810407677"><ele>4.0</ele><time>2026-04-04T11:02:51.999Z</time></trkpt><trkpt lat="51.02610549140597" lon="2.3481653045828543"><ele>3.9999999999999996</ele><time>2026-04-04T11:02:54.999Z</time></trkpt><trkpt lat="51.026059315683675" lon="2.3480800784661873"><ele>4.0</ele><time>2026-04-04T11:02:57.999Z</time></trkpt><trkpt lat="51.026036636411526" lon="2.3479798574914903"><ele>4.0</ele><time>2026-04-04T11:03:00.999Z</time></trkpt><trkpt lat="51.02602063999749" lon="2.3478606056884446"><ele>3.9999999999999996</ele><time>2026-04-04T11:03:04.999Z</time></trkpt><trkpt lat="51.02606910224845" lon="2.3477922835437224"><ele>4.0</ele><time>2026-04-04T11:03:07.999Z</time></trkpt><trkpt lat="51.02613058570319" lon="2.3477033726859156"><ele>4.0</ele><time>2026-04-04T11:03:11.999Z</time></trkpt><trkpt lat="51.02621296934631" lon="2.3476148728320854"><ele>3.9999999999999996</ele><time>2026-04-04T11:03:14.999Z</time></trkpt><trkpt lat="51.02627394922377" lon="2.3475166547545934"><ele>4.0</ele><time>2026-04-04T11:03:17.999Z</time></trkpt><trkpt lat="51.02633682628056" lon="2.347424001694951"><ele>4.0</ele><time>2026-04-04T11:03:21.999Z</time></trkpt><trkpt lat="51.02638498454532" lon="2.3473428036498687"><ele>4.0</ele><time>2026-04-04T11:03:24.999Z</time></trkpt><trkpt lat="51.02643516269913" lon="2.347259369715875"><ele>3.9999999999999996</ele><time>2026-04-04T11:03:26.999Z</time></trkpt><trkpt lat="51.02647860522878" lon="2.347178385200092"><ele>4.0</ele><time>2026-04-04T11:03:29.999Z</time></trkpt><trkpt lat="51.026474416457866" lon="2.3470588821665554"><ele>3.9999999999999996</ele><time>2026-04-04T11:03:32.999Z</time></trkpt><trkpt lat="51.02641601680469" lon="2.3469834613414045"><ele>4.0</ele><time>2026-04-04T11:03:35.999Z</time></trkpt><trkpt lat="51.02635759414379" lon="2.3468847000777875"><ele>4.0</ele><time>2026-04-04T11:03:38.999Z</time></trkpt><trkpt lat="51.026316024569624" lon="2.3468059543066215"><ele>4.0</ele><time>2026-04-04T11:03:41.998Z</time></trkpt><trkpt lat="51.026263508880305" lon="2.3467017720595185"><ele>3.9999999999999996</ele><time>2026-04-04T11:03:45Z</time></trkpt><trkpt lat="51.0262148082528" lon="2.346609816364366"><ele>4.0</ele><time>2026-04-04T11:03:47Z</time></trkpt><trkpt lat="51.026160876513416" lon="2.3464689108095342"><ele>4.166666666666666</ele><time>2026-04-04T11:03:51Z</time></trkpt><trkpt lat="51.02614164510666" lon="2.3463566063616828"><ele>4.333333333333333</ele><time>2026-04-04T11:03:54Z</time></trkpt><trkpt lat="51.026107837662344" lon="2.3462528930107514"><ele>4.5</ele><time>2026-04-04T11:03:57Z</time></trkpt><trkpt lat="51.026072811456615" lon="2.3461662470655043"><ele>4.666666666666667</ele><time>2026-04-04T11:03:59Z</time></trkpt><trkpt lat="51.0260312941508" lon="2.346064460027815"><ele>4.833333333333334</ele><time>2026-04-04T11:04:02Z</time></trkpt><trkpt lat="51.02597648161156" lon="2.3458937279324967"><ele>5.0</ele><time>2026-04-04T11:04:05Z</time></trkpt><trkpt lat="51.02593185955238" lon="2.345776873339672"><ele>5.0</ele><time>2026-04-04T11:04:08Z</time></trkpt><trkpt lat="51.02591099716592" lon="2.345669565660168"><ele>5.0</ele><time>2026-04-04T11:04:11Z</time></trkpt><trkpt lat="51.02588561201453" lon="2.3455700228592824"><ele>5.0</ele><time>2026-04-04T11:04:14Z</time></trkpt><trkpt lat="51.02584389763451" lon="2.3454609636693955"><ele>5.0</ele><time>2026-04-04T11:04:17Z</time></trkpt><trkpt lat="51.02579779946379" lon="2.345351898062183"><ele>5.0</ele><time>2026-04-04T11:04:19Z</time></trkpt><trkpt lat="51.02574864208507" lon="2.3452261798768395"><ele>5.0</ele><time>2026-04-04T11:04:22Z</time></trkpt><trkpt lat="51.02571172212715" lon="2.3451386552904645"><ele>4.833333333333334</ele><time>2026-04-04T11:04:31Z</time></trkpt><trkpt lat="51.025661601642284" lon="2.345050517014586"><ele>4.666666666666667</ele><time>2026-04-04T11:04:34.999Z</time></trkpt><trkpt lat="51.025592284407466" lon="2.344975817192268"><ele>4.5</ele><time>2026-04-04T11:04:37.999Z</time></trkpt><trkpt lat="51.025520023880816" lon="2.3448855910674"><ele>4.333333333333333</ele><time>2026-04-04T11:04:40.999Z</time></trkpt><trkpt lat="51.02547067921461" lon="2.3448218194251753"><ele>4.166666666666666</ele><time>2026-04-04T11:04:42.999Z</time></trkpt><trkpt lat="51.025419170560376" lon="2.3447455361097487"><ele>4.0</ele><time>2026-04-04T11:04:44.999Z</time></trkpt><trkpt lat="51.02537139309989" lon="2.344670658406887"><ele>3.9999999999999996</ele><time>2026-04-04T11:04:46.999Z</time></trkpt><trkpt lat="51.025336744396924" lon="2.34458334855521"><ele>4.0</ele><time>2026-04-04T11:04:49.999Z</time></trkpt><trkpt lat="51.025278932202205" lon="2.3444817633222494"><ele>4.0</ele><time>2026-04-04T11:04:51.999Z</time></trkpt><trkpt lat="51.02523293273695" lon="2.3443895376038344"><ele>4.0</ele><time>2026-04-04T11:04:56.999Z</time></trkpt><trkpt lat="51.025162582338446" lon="2.344323478854912"><ele>3.9999999999999996</ele><time>2026-04-04T11:04:59.999Z</time></trkpt><trkpt lat="51.025123362845555" lon="2.344241959281736"><ele>4.0</ele><time>2026-04-04T11:05:01.999Z</time></trkpt><trkpt lat="51.025055710009624" lon="2.344133250724588"><ele>3.9999999999999996</ele><time>2026-04-04T11:05:04.999Z</time></trkpt><trkpt lat="51.02499531237854" lon="2.344015516339298"><ele>4.0</ele><time>2026-04-04T11:05:07.999Z</time></trkpt><trkpt lat="51.02495489890133" lon="2.3439336401674558"><ele>4.0</ele><time>2026-04-04T11:05:09.999Z</time></trkpt><trkpt lat="51.02492916924575" lon="2.3438396350886848"><ele>4.0</ele><time>2026-04-04T11:05:11.999Z</time></trkpt><trkpt lat="51.02491400959992" lon="2.3437335270754924"><ele>3.9999999999999996</ele><time>2026-04-04T11:05:13.999Z</time></trkpt><trkpt lat="51.02487423950248" lon="2.3436288377747045"><ele>4.0</ele><time>2026-04-04T11:05:15.999Z</time></trkpt><trkpt lat="51.024856559303245" lon="2.3435028649787193"><ele>3.9999999999999996</ele><time>2026-04-04T11:05:17.999Z</time></trkpt><trkpt lat="51.02484807904042" lon="2.34340284052383"><ele>4.0</ele><time>2026-04-04T11:05:19.999Z</time></trkpt><trkpt lat="51.024840476295225" lon="2.3432764100306818"><ele>4.0</ele><time>2026-04-04T11:05:22.999Z</time></trkpt><trkpt lat="51.024840553236416" lon="2.3431546596772495"><ele>4.0</ele><time>2026-04-04T11:05:25.999Z</time></trkpt><trkpt lat="51.02483536649324" lon="2.343045726090183"><ele>3.9999999999999996</ele><time>2026-04-04T11:05:27.999Z</time></trkpt><trkpt lat="51.02484965070318" lon="2.3429058790639927"><ele>4.0</ele><time>2026-04-04T11:05:30.999Z</time></trkpt><trkpt lat="51.02487254313013" lon="2.342797520900199"><ele>3.9999999999999996</ele><time>2026-04-04T11:05:32.999Z</time></trkpt><trkpt lat="51.024884842108946" lon="2.342677583923407"><ele>4.0</ele><time>2026-04-04T11:05:34.999Z</time></trkpt><trkpt lat="51.024903649094675" lon="2.3425710377562075"><ele>4.0</ele><time>2026-04-04T11:05:36.999Z</time></trkpt><trkpt lat="51.024940122982805" lon="2.3424717245091844"><ele>4.0</ele><time>2026-04-04T11:05:38.999Z</time></trkpt><trkpt lat="51.02498351255117" lon="2.342370437328832"><ele>3.9999999999999996</ele><time>2026-04-04T11:05:41.999Z</time></trkpt><trkpt lat="51.025016112257155" lon="2.3422384804775858"><ele>4.0</ele><time>2026-04-04T11:05:44.999Z</time></trkpt><trkpt lat="51.02499413309492" lon="2.3421405431863347"><ele>3.9999999999999996</ele><time>2026-04-04T11:05:46.998Z</time></trkpt><trkpt lat="51.025025931868406" lon="2.342013110643361"><ele>4.0</ele><time>2026-04-04T11:05:49.998Z</time></trkpt><trkpt lat="51.02509673228692" lon="2.341965723451011"><ele>4.0</ele><time>2026-04-04T11:05:53Z</time></trkpt><trkpt lat="51.02515520693753" lon="2.3418497980278254"><ele>4.0</ele><time>2026-04-04T11:05:56Z</time></trkpt><trkpt lat="51.025216139681646" lon="2.3417411043432685"><ele>3.9999999999999996</ele><time>2026-04-04T11:05:59Z</time></trkpt><trkpt lat="51.02526119154609" lon="2.3416628213735287"><ele>4.0</ele><time>2026-04-04T11:06:01Z</time></trkpt><trkpt lat="51.02530122601135" lon="2.3415743865476077"><ele>3.9999999999999996</ele><time>2026-04-04T11:06:03Z</time></trkpt><trkpt lat="51.02534318705001" lon="2.3414900036519173"><ele>4.0</ele><time>2026-04-04T11:06:05Z</time></trkpt><trkpt lat="51.025366406239996" lon="2.341370483104142"><ele>4.0</ele><time>2026-04-04T11:06:08Z</time></trkpt><trkpt lat="51.02529245368774" lon="2.3412794284707497"><ele>4.0</ele><time>2026-04-04T11:06:11Z</time></trkpt><trkpt lat="51.0252289974001" lon="2.3411776297797275"><ele>3.9999999999999996</ele><time>2026-04-04T11:06:14Z</time></trkpt><trkpt lat="51.025188649934655" lon="2.3410919271041624"><ele>4.0</ele><time>2026-04-04T11:06:16Z</time></trkpt><trkpt lat="51.025130469336574" lon="2.3409782148216887"><ele>3.9999999999999996</ele><time>2026-04-04T11:06:19Z</time></trkpt><trkpt lat="51.02507848263316" lon="2.340847914103065"><ele>4.0</ele><time>2026-04-04T11:06:22Z</time></trkpt><trkpt lat="51.025034755948624" lon="2.3407627876290142"><ele>4.0</ele><time>2026-04-04T11:06:24Z</time></trkpt><trkpt lat="51.024985694079405" lon="2.340641273746318"><ele>4.0</ele><time>2026-04-04T11:06:27Z</time></trkpt><trkpt lat="51.024943230148594" lon="2.3405484013864863"><ele>3.9999999999999996</ele><time>2026-04-04T11:06:29Z</time></trkpt><trkpt lat="51.02488615605165" lon="2.3404218374457106"><ele>4.0</ele><time>2026-04-04T11:06:32Z</time></trkpt><trkpt lat="51.02483977219402" lon="2.3403015890279875"><ele>4.166666666666666</ele><time>2026-04-04T11:06:35Z</time></trkpt><trkpt lat="51.024802767962896" lon="2.3402205987648736"><ele>4.333333333333333</ele><time>2026-04-04T11:06:37Z</time></trkpt><trkpt lat="51.02474817943349" lon="2.340102780967475"><ele>4.5</ele><time>2026-04-04T11:06:40Z</time></trkpt><trkpt lat="51.02470326095894" lon="2.340024772276584"><ele>4.666666666666667</ele><time>2026-04-04T11:06:41.999Z</time></trkpt><trkpt lat="51.024660601578645" lon="2.3399488885467314"><ele>4.833333333333334</ele><time>2026-04-04T11:06:43.999Z</time></trkpt><trkpt lat="51.02457337800488" lon="2.340001262679251"><ele>5.0</ele><time>2026-04-04T11:06:46.999Z</time></trkpt><trkpt lat="51.024520742606086" lon="2.3400873889306024"><ele>5.0</ele><time>2026-04-04T11:06:49.999Z</time></trkpt><trkpt lat="51.02447002675932" lon="2.3401468974016177"><ele>5.0</ele><time>2026-04-04T11:06:52.999Z</time></trkpt><trkpt lat="51.02440612232855" lon="2.340206802739822"><ele>5.0</ele><time>2026-04-04T11:06:57.999Z</time></trkpt><trkpt lat="51.024349186008976" lon="2.340253877324512"><ele>5.0</ele><time>2026-04-04T11:07:02.999Z</time></trkpt><trkpt lat="51.024281075615534" lon="2.3402835500411743"><ele>5.0</ele><time>2026-04-04T11:07:10.999Z</time></trkpt><trkpt lat="51.0243668573191" lon="2.340267175196951"><ele>5.0</ele><time>2026-04-04T11:07:50.999Z</time></trkpt><trkpt lat="51.02444012500876" lon="2.340227585904665"><ele>5.0</ele><time>2026-04-04T11:07:53.998Z</time></trkpt><trkpt lat="51.02450408629937" lon="2.340163003503421"><ele>5.0</ele><time>2026-04-04T11:07:57Z</time></trkpt><trkpt lat="51.02455877125847" lon="2.3401097443317056"><ele>5.0</ele><time>2026-04-04T11:07:59Z</time></trkpt><trkpt lat="51.02462863390073" lon="2.3400332138968856"><ele>5.0</ele><time>2026-04-04T11:08:02Z</time></trkpt><trkpt lat="51.02469406539866" lon="2.339988449994861"><ele>5.0</ele><time>2026-04-04T11:08:05Z</time></trkpt><trkpt lat="51.02475105880053" lon="2.339903702317297"><ele>5.0</ele><time>2026-04-04T11:08:08Z</time></trkpt><trkpt lat="51.02473901718721" lon="2.3397956766667427"><ele>5.0</ele><time>2026-04-04T11:08:10Z</time></trkpt><trkpt lat="51.02468872172083" lon="2.3397081099489583"><ele>5.0</ele><time>2026-04-04T11:08:12Z</time></trkpt><trkpt lat="51.02466884949214" lon="2.3395917994482684"><ele>5.333333333333334</ele><time>2026-04-04T11:08:14Z</time></trkpt><trkpt lat="51.024626857812365" lon="2.339487277202368"><ele>5.666666666666667</ele><time>2026-04-04T11:08:16Z</time></trkpt><trkpt lat="51.02457747286353" lon="2.339382399770198"><ele>6.0</ele><time>2026-04-04T11:08:19Z</time></trkpt><trkpt lat="51.02453522313181" lon="2.339296736214546"><ele>6.333333333333334</ele><time>2026-04-04T11:08:22Z</time></trkpt><trkpt lat="51.0245120890403" lon="2.3391618660810396"><ele>6.666666666666667</ele><time>2026-04-04T11:08:25Z</time></trkpt><trkpt lat="51.024480654017744" lon="2.3390483448324217"><ele>7.0</ele><time>2026-04-04T11:08:28Z</time></trkpt><trkpt lat="51.02446378545424" lon="2.3389131592652244"><ele>6.833333333333334</ele><time>2026-04-04T11:08:32Z</time></trkpt><trkpt lat="51.02441952095607" lon="2.338799791525462"><ele>6.666666666666667</ele><time>2026-04-04T11:08:35Z</time></trkpt><trkpt lat="51.02433997202575" lon="2.338727273829802"><ele>6.5</ele><time>2026-04-04T11:08:38Z</time></trkpt><trkpt lat="51.024321260404896" lon="2.3386233091703987"><ele>6.333333333333334</ele><time>2026-04-04T11:08:41Z</time></trkpt><trkpt lat="51.0242825180915" lon="2.338506684165986"><ele>6.166666666666667</ele><time>2026-04-04T11:08:44Z</time></trkpt><trkpt lat="51.024221333917836" lon="2.3384070233852383"><ele>6.0</ele><time>2026-04-04T11:08:47Z</time></trkpt><trkpt lat="51.02416331477669" lon="2.338358299185415"><ele>5.666666666666667</ele><time>2026-04-04T11:08:48.999Z</time></trkpt><trkpt lat="51.0241346213985" lon="2.3382558437602534"><ele>5.333333333333333</ele><time>2026-04-04T11:08:51.999Z</time></trkpt><trkpt lat="51.02406408955795" lon="2.3382774213082853"><ele>5.0</ele><time>2026-04-04T11:08:53.999Z</time></trkpt><trkpt lat="51.0240269704261" lon="2.3384027687838995"><ele>4.666666666666666</ele><time>2026-04-04T11:08:55.999Z</time></trkpt><trkpt lat="51.02399884595702" lon="2.3385012193476777"><ele>4.333333333333333</ele><time>2026-04-04T11:08:57.999Z</time></trkpt><trkpt lat="51.02392090422852" lon="2.3385713770639067"><ele>4.0</ele><time>2026-04-04T11:08:59.999Z</time></trkpt><trkpt lat="51.02384562323711" lon="2.3386262908474342"><ele>4.0</ele><time>2026-04-04T11:09:01.999Z</time></trkpt><trkpt lat="51.023766037879305" lon="2.3386383799810404"><ele>3.9999999999999996</ele><time>2026-04-04T11:09:03.999Z</time></trkpt><trkpt lat="51.02369475177338" lon="2.3386022723205757"><ele>4.0</ele><time>2026-04-04T11:09:05.999Z</time></trkpt><trkpt lat="51.02361739404068" lon="2.3386156798434823"><ele>4.0</ele><time>2026-04-04T11:09:07.999Z</time></trkpt><trkpt lat="51.02354447937973" lon="2.338618916109332"><ele>3.9999999999999996</ele><time>2026-04-04T11:09:09.999Z</time></trkpt><trkpt lat="51.02347111883906" lon="2.3386305663562696"><ele>4.0</ele><time>2026-04-04T11:09:11.999Z</time></trkpt><trkpt lat="51.02340620652088" lon="2.3386353054214566"><ele>4.0</ele><time>2026-04-04T11:09:13.999Z</time></trkpt><trkpt lat="51.02333799069512" lon="2.3386197481093327"><ele>3.714285714285714</ele><time>2026-04-04T11:09:16.999Z</time></trkpt><trkpt lat="51.023248888522204" lon="2.338588404768758"><ele>3.428571428571428</ele><time>2026-04-04T11:09:19.999Z</time></trkpt><trkpt lat="51.02318022349919" lon="2.338537029856743"><ele>3.142857142857143</ele><time>2026-04-04T11:09:21.999Z</time></trkpt><trkpt lat="51.02311703135433" lon="2.338499244224822"><ele>2.8571428571428568</ele><time>2026-04-04T11:09:23.999Z</time></trkpt><trkpt lat="51.023072612121" lon="2.3384248881567835"><ele>2.571428571428571</ele><time>2026-04-04T11:09:25.999Z</time></trkpt><trkpt lat="51.023034773489364" lon="2.3383414404727416"><ele>2.2857142857142856</ele><time>2026-04-04T11:09:27.999Z</time></trkpt><trkpt lat="51.02301923978496" lon="2.3382361412392454"><ele>2.0</ele><time>2026-04-04T11:09:29.999Z</time></trkpt><trkpt lat="51.022998530471014" lon="2.3381382790216465"><ele>2.333333333333333</ele><time>2026-04-04T11:09:31.999Z</time></trkpt><trkpt lat="51.02299558105401" lon="2.3380326617200753"><ele>2.6666666666666665</ele><time>2026-04-04T11:09:33.999Z</time></trkpt><trkpt lat="51.02298846901284" lon="2.3378948636490766"><ele>3.0</ele><time>2026-04-04T11:09:36.999Z</time></trkpt><trkpt lat="51.022979281826544" lon="2.337775838177627"><ele>3.333333333333333</ele><time>2026-04-04T11:09:39.999Z</time></trkpt><trkpt lat="51.02291769999498" lon="2.337711806755625"><ele>3.6666666666666665</ele><time>2026-04-04T11:09:42.999Z</time></trkpt><trkpt lat="51.022853783151476" lon="2.3377740063603523"><ele>4.0</ele><time>2026-04-04T11:09:44.999Z</time></trkpt><trkpt lat="51.02280459926208" lon="2.33787682246204"><ele>4.0</ele><time>2026-04-04T11:09:46.999Z</time></trkpt><trkpt lat="51.022765977186964" lon="2.337969481558574"><ele>3.9999999999999996</ele><time>2026-04-04T11:09:48.999Z</time></trkpt><trkpt lat="51.02270484603376" lon="2.3380488872440437"><ele>4.0</ele><time>2026-04-04T11:09:52.999Z</time></trkpt><trkpt lat="51.022722477036694" lon="2.3381596191462353"><ele>4.0</ele><time>2026-04-04T11:09:56.999Z</time></trkpt><trkpt lat="51.02273598161327" lon="2.3382717385302176"><ele>3.9999999999999996</ele><time>2026-04-04T11:10:00.998Z</time></trkpt><trkpt lat="51.02269327764953" lon="2.338359741519333"><ele>4.0</ele><time>2026-04-04T11:10:05Z</time></trkpt><trkpt lat="51.02263006093844" lon="2.338381571448016"><ele>4.0</ele><time>2026-04-04T11:10:08Z</time></trkpt><trkpt lat="51.02256583725917" lon="2.338314096514042"><ele>3.6666666666666665</ele><time>2026-04-04T11:10:14Z</time></trkpt><trkpt lat="51.02252911005148" lon="2.3382270020625175"><ele>3.333333333333333</ele><time>2026-04-04T11:10:19Z</time></trkpt><trkpt lat="51.02256749132522" lon="2.3383223882400372"><ele>3.0</ele><time>2026-04-04T11:10:38Z</time></trkpt><trkpt lat="51.022633587075205" lon="2.338387042583144"><ele>2.6666666666666665</ele><time>2026-04-04T11:10:42Z</time></trkpt><trkpt lat="51.022712196191875" lon="2.3383878733609804"><ele>2.333333333333333</ele><time>2026-04-04T11:10:46Z</time></trkpt><trkpt lat="51.02278472828266" lon="2.3384488920049136"><ele>2.0</ele><time>2026-04-04T11:10:50Z</time></trkpt><trkpt lat="51.02279633991461" lon="2.3385670578043194"><ele>1.9999999999999998</ele><time>2026-04-04T11:10:54Z</time></trkpt><trkpt lat="51.02280070848469" lon="2.338689195351903"><ele>2.0</ele><time>2026-04-04T11:10:56.999Z</time></trkpt><trkpt lat="51.02276015182407" lon="2.3387710928382712"><ele>2.0</ele><time>2026-04-04T11:10:59.999Z</time></trkpt><trkpt lat="51.02266337501381" lon="2.3388042903186084"><ele>2.0</ele><time>2026-04-04T11:11:02.999Z</time></trkpt><trkpt lat="51.022590312309184" lon="2.3388105623280318"><ele>1.9999999999999998</ele><time>2026-04-04T11:11:08.999Z</time></trkpt><trkpt lat="51.02254847374102" lon="2.338717285428555"><ele>2.0</ele><time>2026-04-04T11:11:13.999Z</time></trkpt><trkpt lat="51.022509599622936" lon="2.33863208341776"><ele>2.142857142857143</ele><time>2026-04-04T11:11:52.999Z</time></trkpt><trkpt lat="51.02244933775249" lon="2.338678745647723"><ele>2.2857142857142856</ele><time>2026-04-04T11:11:55.999Z</time></trkpt><trkpt lat="51.02236492902857" lon="2.3387348679631503"><ele>2.4285714285714284</ele><time>2026-04-04T11:11:58.999Z</time></trkpt><trkpt lat="51.02229871608068" lon="2.3387627626356755"><ele>2.571428571428571</ele><time>2026-04-04T11:12:01.999Z</time></trkpt><trkpt lat="51.02223916642736" lon="2.338821727044915"><ele>2.7142857142857144</ele><time>2026-04-04T11:12:03.998Z</time></trkpt><trkpt lat="51.02225836455579" lon="2.3389270263322213"><ele>2.8571428571428568</ele><time>2026-04-04T11:12:05.998Z</time></trkpt><trkpt lat="51.02229281884652" lon="2.339018519833516"><ele>3.0</ele><time>2026-04-04T11:12:09Z</time></trkpt><trkpt lat="51.0223169992809" lon="2.3391490583924064"><ele>3.1666666666666665</ele><time>2026-04-04T11:12:13Z</time></trkpt><trkpt lat="51.02234706724147" lon="2.339263252682853"><ele>3.333333333333333</ele><time>2026-04-04T11:12:16Z</time></trkpt><trkpt lat="51.022369138009985" lon="2.339387714483591"><ele>3.5</ele><time>2026-04-04T11:12:20Z</time></trkpt><trkpt lat="51.02239657562248" lon="2.3395271279272483"><ele>3.6666666666666665</ele><time>2026-04-04T11:12:23Z</time></trkpt><trkpt lat="51.02241487716329" lon="2.339627445430486"><ele>3.833333333333333</ele><time>2026-04-04T11:12:25Z</time></trkpt><trkpt lat="51.0224448842535" lon="2.3397548576412452"><ele>4.0</ele><time>2026-04-04T11:12:28Z</time></trkpt><trkpt lat="51.02246393632764" lon="2.339868412979305"><ele>3.714285714285714</ele><time>2026-04-04T11:12:31Z</time></trkpt><trkpt lat="51.022491570048366" lon="2.3399653800581195"><ele>3.428571428571428</ele><time>2026-04-04T11:12:34Z</time></trkpt><trkpt lat="51.02251649529747" lon="2.340093623825988"><ele>3.142857142857143</ele><time>2026-04-04T11:12:37Z</time></trkpt><trkpt lat="51.02254774094196" lon="2.3401815599303575"><ele>2.8571428571428568</ele><time>2026-04-04T11:12:39Z</time></trkpt><trkpt lat="51.022569177259705" lon="2.3403005379838215"><ele>2.571428571428571</ele><time>2026-04-04T11:12:42Z</time></trkpt><trkpt lat="51.02258843589973" lon="2.340414230413459"><ele>2.2857142857142856</ele><time>2026-04-04T11:12:45Z</time></trkpt><trkpt lat="51.0226129511535" lon="2.3405082097002494"><ele>2.0</ele><time>2026-04-04T11:12:47Z</time></trkpt><trkpt lat="51.02264363684719" lon="2.3406169707185533"><ele>1.9999999999999998</ele><time>2026-04-04T11:12:49Z</time></trkpt><trkpt lat="51.02265910246092" lon="2.3407168896939297"><ele>2.0</ele><time>2026-04-04T11:12:51Z</time></trkpt><trkpt lat="51.02268904132555" lon="2.3408451527739405"><ele>2.0</ele><time>2026-04-04T11:12:54Z</time></trkpt><trkpt lat="51.02272409454161" lon="2.3409484204253608"><ele>2.0</ele><time>2026-04-04T11:12:57Z</time></trkpt><trkpt lat="51.02274067087849" lon="2.341074875759408"><ele>1.9999999999999998</ele><time>2026-04-04T11:12:59.999Z</time></trkpt><trkpt lat="51.02277140259514" lon="2.341216825078411"><ele>2.0</ele><time>2026-04-04T11:13:02.999Z</time></trkpt><trkpt lat="51.022792729120184" lon="2.3413140671019583"><ele>2.6666666666666665</ele><time>2026-04-04T11:13:04.999Z</time></trkpt><trkpt lat="51.02282242447887" lon="2.3414363936257314"><ele>3.333333333333333</ele><time>2026-04-04T11:13:06.999Z</time></trkpt><trkpt lat="51.02285398262313" lon="2.3415352441909407"><ele>4.0</ele><time>2026-04-04T11:13:08.999Z</time></trkpt><trkpt lat="51.02287554875371" lon="2.3416350007997333"><ele>4.666666666666667</ele><time>2026-04-04T11:13:10.999Z</time></trkpt><trkpt lat="51.02288745522159" lon="2.341734810391946"><ele>5.333333333333333</ele><time>2026-04-04T11:13:12.999Z</time></trkpt><trkpt lat="51.02292878251522" lon="2.341857669168199"><ele>6.0</ele><time>2026-04-04T11:13:15.999Z</time></trkpt><trkpt lat="51.022944008510116" lon="2.341987471999528"><ele>6.0</ele><time>2026-04-04T11:13:18.999Z</time></trkpt><trkpt lat="51.02298071051692" lon="2.342125039657244"><ele>6.0</ele><time>2026-04-04T11:13:21.999Z</time></trkpt><trkpt lat="51.023002486141486" lon="2.3422192499771946"><ele>6.0</ele><time>2026-04-04T11:13:23.999Z</time></trkpt><trkpt lat="51.023028220939196" lon="2.342350752962367"><ele>6.0</ele><time>2026-04-04T11:13:26.999Z</time></trkpt><trkpt lat="51.023049835188864" lon="2.342478202885095"><ele>6.0</ele><time>2026-04-04T11:13:29.999Z</time></trkpt><trkpt lat="51.02309724417066" lon="2.342599460622114"><ele>6.0</ele><time>2026-04-04T11:13:32.999Z</time></trkpt><trkpt lat="51.02312032344097" lon="2.3427315782267932"><ele>6.166666666666667</ele><time>2026-04-04T11:13:35.999Z</time></trkpt><trkpt lat="51.023153296314874" lon="2.342846485054163"><ele>6.333333333333334</ele><time>2026-04-04T11:13:38.999Z</time></trkpt><trkpt lat="51.023175657160074" lon="2.342976589133309"><ele>6.5</ele><time>2026-04-04T11:13:41.999Z</time></trkpt><trkpt lat="51.02319495012745" lon="2.343103687909918"><ele>6.666666666666667</ele><time>2026-04-04T11:13:44.999Z</time></trkpt><trkpt lat="51.023227810156584" lon="2.3432198218299765"><ele>6.833333333333334</ele><time>2026-04-04T11:13:47.999Z</time></trkpt><trkpt lat="51.02325898630886" lon="2.3433621791120767"><ele>7.0</ele><time>2026-04-04T11:13:50.999Z</time></trkpt><trkpt lat="51.02328623624494" lon="2.3435003701551267"><ele>6.428571428571429</ele><time>2026-04-04T11:13:53.999Z</time></trkpt><trkpt lat="51.023327530574115" lon="2.343615157985711"><ele>5.857142857142857</ele><time>2026-04-04T11:13:56.999Z</time></trkpt><trkpt lat="51.02334605466088" lon="2.3437202297537785"><ele>5.285714285714286</ele><time>2026-04-04T11:13:58.999Z</time></trkpt><trkpt lat="51.02336251434021" lon="2.343834124720054"><ele>4.714285714285714</ele><time>2026-04-04T11:14:00.999Z</time></trkpt><trkpt lat="51.0233886270251" lon="2.343938371580667"><ele>4.142857142857142</ele><time>2026-04-04T11:14:02.999Z</time></trkpt><trkpt lat="51.02341125752348" lon="2.344043710094569"><ele>3.571428571428571</ele><time>2026-04-04T11:14:04.999Z</time></trkpt><trkpt lat="51.02344166464485" lon="2.344141437826195"><ele>3.0</ele><time>2026-04-04T11:14:06.998Z</time></trkpt><trkpt lat="51.023471986964346" lon="2.344247546200798"><ele>3.0</ele><time>2026-04-04T11:14:08.998Z</time></trkpt><trkpt lat="51.02349106772265" lon="2.3443458409860427"><ele>3.0</ele><time>2026-04-04T11:14:10.998Z</time></trkpt><trkpt lat="51.02351994466469" lon="2.34448644968453"><ele>3.0</ele><time>2026-04-04T11:14:13.998Z</time></trkpt><trkpt lat="51.02355414569562" lon="2.3446068892009326"><ele>3.0</ele><time>2026-04-04T11:14:17Z</time></trkpt><trkpt lat="51.02358101084463" lon="2.344725401583532"><ele>3.0</ele><time>2026-04-04T11:14:20Z</time></trkpt><trkpt lat="51.02361491970535" lon="2.344836077823517"><ele>3.0</ele><time>2026-04-04T11:14:23Z</time></trkpt><trkpt lat="51.023633848361605" lon="2.344935218175333"><ele>2.9999999999999996</ele><time>2026-04-04T11:14:25Z</time></trkpt><trkpt lat="51.02365500873117" lon="2.345043740513956"><ele>3.0</ele><time>2026-04-04T11:14:27Z</time></trkpt><trkpt lat="51.023676709350575" lon="2.345146988921181"><ele>3.0</ele><time>2026-04-04T11:14:29Z</time></trkpt><trkpt lat="51.02370872340886" lon="2.345266834325454"><ele>3.0</ele><time>2026-04-04T11:14:32Z</time></trkpt><trkpt lat="51.023736370144874" lon="2.345368979999136"><ele>3.0</ele><time>2026-04-04T11:14:35Z</time></trkpt><trkpt lat="51.023755707442646" lon="2.345489483331741"><ele>2.9999999999999996</ele><time>2026-04-04T11:14:38Z</time></trkpt><trkpt lat="51.02378763773902" lon="2.345578801461645"><ele>3.0</ele><time>2026-04-04T11:14:40Z</time></trkpt><trkpt lat="51.02381106047848" lon="2.345682895956971"><ele>3.1428571428571423</ele><time>2026-04-04T11:14:42Z</time></trkpt><trkpt lat="51.02383158984619" lon="2.3457904908369014"><ele>3.2857142857142856</ele><time>2026-04-04T11:14:44Z</time></trkpt><trkpt lat="51.02387154203101" lon="2.345892828440326"><ele>3.4285714285714284</ele><time>2026-04-04T11:14:47Z</time></trkpt><trkpt lat="51.023910775778326" lon="2.3459918693242257"><ele>3.571428571428571</ele><time>2026-04-04T11:14:50Z</time></trkpt><trkpt lat="51.02392697365885" lon="2.3460967224700786"><ele>3.714285714285714</ele><time>2026-04-04T11:14:53Z</time></trkpt><trkpt lat="51.02394901759739" lon="2.3462038004175567"><ele>3.8571428571428568</ele><time>2026-04-04T11:14:57Z</time></trkpt><trkpt lat="51.023980735127346" lon="2.3463222625044464"><ele>4.0</ele><time>2026-04-04T11:15:01Z</time></trkpt><trkpt lat="51.02401032334219" lon="2.3464297999040116"><ele>4.0</ele><time>2026-04-04T11:15:05.999Z</time></trkpt><trkpt lat="51.024028502079" lon="2.3465259394752946"><ele>3.9999999999999996</ele><time>2026-04-04T11:15:09.999Z</time></trkpt><trkpt lat="51.02403996416017" lon="2.346637140220495"><ele>4.0</ele><time>2026-04-04T11:15:13.999Z</time></trkpt><trkpt lat="51.02406596827198" lon="2.346760748982149"><ele>4.0</ele><time>2026-04-04T11:15:17.999Z</time></trkpt><trkpt lat="51.024086156685875" lon="2.3468650475258475"><ele>3.9999999999999996</ele><time>2026-04-04T11:15:20.999Z</time></trkpt><trkpt lat="51.02410958088454" lon="2.34697736645909"><ele>4.0</ele><time>2026-04-04T11:15:23.999Z</time></trkpt><trkpt lat="51.0241419262002" lon="2.3470847377246553"><ele>4.0</ele><time>2026-04-04T11:15:26.999Z</time></trkpt><trkpt lat="51.02417476573389" lon="2.347200052499328"><ele>3.833333333333333</ele><time>2026-04-04T11:15:29.999Z</time></trkpt><trkpt lat="51.02419548255242" lon="2.347322036953083"><ele>3.6666666666666665</ele><time>2026-04-04T11:15:32.999Z</time></trkpt><trkpt lat="51.0242091242431" lon="2.3474548289413746"><ele>3.5</ele><time>2026-04-04T11:15:35.999Z</time></trkpt><trkpt lat="51.024230943194105" lon="2.3475920635289853"><ele>3.333333333333333</ele><time>2026-04-04T11:15:38.999Z</time></trkpt><trkpt lat="51.02424936005972" lon="2.3477313671018547"><ele>3.1666666666666665</ele><time>2026-04-04T11:15:41.999Z</time></trkpt><trkpt lat="51.0242803581385" lon="2.3478479149894596"><ele>3.0</ele><time>2026-04-04T11:15:44.999Z</time></trkpt><trkpt lat="51.02429657062218" lon="2.3479514982425225"><ele>3.2857142857142856</ele><time>2026-04-04T11:15:47.999Z</time></trkpt><trkpt lat="51.02433071424067" lon="2.3480520162371543"><ele>3.571428571428571</ele><time>2026-04-04T11:15:50.999Z</time></trkpt><trkpt lat="51.0243561754636" lon="2.348175656959737"><ele>3.8571428571428568</ele><time>2026-04-04T11:15:54.999Z</time></trkpt><trkpt lat="51.02437663176771" lon="2.3482841835085098"><ele>4.142857142857142</ele><time>2026-04-04T11:15:57.999Z</time></trkpt><trkpt lat="51.024406111393084" lon="2.348392735966371"><ele>4.428571428571429</ele><time>2026-04-04T11:16:00.999Z</time></trkpt><trkpt lat="51.02443115384407" lon="2.348501072226272"><ele>4.714285714285714</ele><time>2026-04-04T11:16:03.999Z</time></trkpt><trkpt lat="51.02445687786029" lon="2.3485924868241583"><ele>5.0</ele><time>2026-04-04T11:16:06.999Z</time></trkpt><trkpt lat="51.02448701264943" lon="2.3486950720635185"><ele>5.0</ele><time>2026-04-04T11:16:10.998Z</time></trkpt><trkpt lat="51.02450070805994" lon="2.3488393847361277"><ele>5.0</ele><time>2026-04-04T11:16:14.998Z</time></trkpt><trkpt lat="51.02451909400992" lon="2.3489356109047117"><ele>5.0</ele><time>2026-04-04T11:16:16.998Z</time></trkpt><trkpt lat="51.02456001253433" lon="2.349052501051944"><ele>5.0</ele><time>2026-04-04T11:16:19.998Z</time></trkpt><trkpt lat="51.02457531690081" lon="2.3491718611627013"><ele>5.0</ele><time>2026-04-04T11:16:22.999Z</time></trkpt><trkpt lat="51.024606428429024" lon="2.3492718710841887"><ele>5.0</ele><time>2026-04-04T11:16:25.999Z</time></trkpt><trkpt lat="51.02464134314634" lon="2.3493994852583575"><ele>5.0</ele><time>2026-04-04T11:16:28.999Z</time></trkpt><trkpt lat="51.024653502551665" lon="2.349499409748422"><ele>5.0</ele><time>2026-04-04T11:16:30.999Z</time></trkpt><trkpt lat="51.0246823505921" lon="2.3496010978402415"><ele>5.0</ele><time>2026-04-04T11:16:33Z</time></trkpt><trkpt lat="51.02469958615329" lon="2.3496994096363975"><ele>5.0</ele><time>2026-04-04T11:16:35Z</time></trkpt><trkpt lat="51.024732024774735" lon="2.3498237264772577"><ele>5.0</ele><time>2026-04-04T11:16:38Z</time></trkpt><trkpt lat="51.024764010751646" lon="2.3499345261110034"><ele>5.0</ele><time>2026-04-04T11:16:41Z</time></trkpt><trkpt lat="51.02478638090556" lon="2.3500439121852112"><ele>5.0</ele><time>2026-04-04T11:16:44Z</time></trkpt><trkpt lat="51.02481160512997" lon="2.3501645941437106"><ele>5.0</ele><time>2026-04-04T11:16:47.999Z</time></trkpt><trkpt lat="51.024834265883996" lon="2.3502850452992434"><ele>5.0</ele><time>2026-04-04T11:16:51.999Z</time></trkpt><trkpt lat="51.02486013945008" lon="2.350396815158163"><ele>5.0</ele><time>2026-04-04T11:16:54.999Z</time></trkpt><trkpt lat="51.02488864395976" lon="2.3505349420045585"><ele>5.0</ele><time>2026-04-04T11:16:57.999Z</time></trkpt><trkpt lat="51.024903840259235" lon="2.3506344716607814"><ele>5.0</ele><time>2026-04-04T11:16:59.999Z</time></trkpt><trkpt lat="51.02493652489185" lon="2.3507283664519876"><ele>5.0</ele><time>2026-04-04T11:17:01.999Z</time></trkpt><trkpt lat="51.02496463912673" lon="2.3508288026575817"><ele>5.0</ele><time>2026-04-04T11:17:03.999Z</time></trkpt><trkpt lat="51.02499064079539" lon="2.3509211116972137"><ele>4.666666666666667</ele><time>2026-04-04T11:17:05.999Z</time></trkpt><trkpt lat="51.02503063538967" lon="2.351041115910694"><ele>4.333333333333334</ele><time>2026-04-04T11:17:08.999Z</time></trkpt><trkpt lat="51.02506079837536" lon="2.351137821853986"><ele>4.0</ele><time>2026-04-04T11:17:11.999Z</time></trkpt><trkpt lat="51.025077271143864" lon="2.3512359340929634"><ele>3.666666666666667</ele><time>2026-04-04T11:17:14.999Z</time></trkpt><trkpt lat="51.025102107558524" lon="2.351342923425939"><ele>3.3333333333333335</ele><time>2026-04-04T11:17:17.999Z</time></trkpt><trkpt lat="51.02512043376977" lon="2.351481203602638"><ele>3.0</ele><time>2026-04-04T11:17:20.999Z</time></trkpt><trkpt lat="51.02513761360519" lon="2.3516249074445827"><ele>3.0</ele><time>2026-04-04T11:17:23.999Z</time></trkpt><trkpt lat="51.025176121299026" lon="2.351734785500526"><ele>3.0</ele><time>2026-04-04T11:17:25.999Z</time></trkpt><trkpt lat="51.0252114242882" lon="2.3518509379071775"><ele>3.0</ele><time>2026-04-04T11:17:27.999Z</time></trkpt><trkpt lat="51.02523911347066" lon="2.3519636459209106"><ele>3.0</ele><time>2026-04-04T11:17:29.999Z</time></trkpt><trkpt lat="51.02526408464393" lon="2.3520714794978943"><ele>3.0</ele><time>2026-04-04T11:17:31.999Z</time></trkpt><trkpt lat="51.02529800602521" lon="2.352213402213415"><ele>3.0</ele><time>2026-04-04T11:17:34.999Z</time></trkpt><trkpt lat="51.02531331868125" lon="2.352347438960487"><ele>3.1666666666666665</ele><time>2026-04-04T11:17:37.999Z</time></trkpt><trkpt lat="51.02534349141985" lon="2.352473027012888"><ele>3.333333333333333</ele><time>2026-04-04T11:17:40.999Z</time></trkpt><trkpt lat="51.02535938303678" lon="2.3526207611276253"><ele>3.5</ele><time>2026-04-04T11:17:43.999Z</time></trkpt><trkpt lat="51.025390056987334" lon="2.35272338722051"><ele>3.6666666666666665</ele><time>2026-04-04T11:17:45.999Z</time></trkpt><trkpt lat="51.025403656110335" lon="2.3528311742612478"><ele>3.833333333333333</ele><time>2026-04-04T11:17:47.999Z</time></trkpt><trkpt lat="51.02542861291224" lon="2.3529292620700404"><ele>4.0</ele><time>2026-04-04T11:17:49.999Z</time></trkpt><trkpt lat="51.02544256465061" lon="2.353033441479149"><ele>3.833333333333333</ele><time>2026-04-04T11:17:52.999Z</time></trkpt><trkpt lat="51.02546976305922" lon="2.3531318857786245"><ele>3.6666666666666665</ele><time>2026-04-04T11:17:54.999Z</time></trkpt><trkpt lat="51.02548825302141" lon="2.3532613328404204"><ele>3.5</ele><time>2026-04-04T11:17:57.999Z</time></trkpt><trkpt lat="51.02550604064404" lon="2.3533989735100183"><ele>3.333333333333333</ele><time>2026-04-04T11:18:00.999Z</time></trkpt><trkpt lat="51.02553927276271" lon="2.3534977038003566"><ele>3.1666666666666665</ele><time>2026-04-04T11:18:02.999Z</time></trkpt><trkpt lat="51.02556190097037" lon="2.353642850673882"><ele>3.0</ele><time>2026-04-04T11:18:05.999Z</time></trkpt><trkpt lat="51.02559313725" lon="2.353785438104765"><ele>3.0</ele><time>2026-04-04T11:18:08.999Z</time></trkpt><trkpt lat="51.025620280821485" lon="2.3538866967646945"><ele>3.0</ele><time>2026-04-04T11:18:11.999Z</time></trkpt><trkpt lat="51.02564977416597" lon="2.3539928937464465"><ele>3.0</ele><time>2026-04-04T11:18:14.998Z</time></trkpt><trkpt lat="51.02567788418541" lon="2.354121897127406"><ele>3.0</ele><time>2026-04-04T11:18:18.998Z</time></trkpt><trkpt lat="51.025703982220314" lon="2.354244189526403"><ele>3.0</ele><time>2026-04-04T11:18:21.998Z</time></trkpt><trkpt lat="51.02571496714109" lon="2.3543676577677024"><ele>3.0</ele><time>2026-04-04T11:18:24.998Z</time></trkpt><trkpt lat="51.025731745416486" lon="2.3544797149281913"><ele>3.0</ele><time>2026-04-04T11:18:27.999Z</time></trkpt><trkpt lat="51.02574364360244" lon="2.354598411662834"><ele>3.0</ele><time>2026-04-04T11:18:30.999Z</time></trkpt><trkpt lat="51.02576840241489" lon="2.3546985042535864"><ele>3.0</ele><time>2026-04-04T11:18:33.999Z</time></trkpt><trkpt lat="51.02580015760004" lon="2.3548218742969795"><ele>3.0</ele><time>2026-04-04T11:18:37Z</time></trkpt><trkpt lat="51.025845386234906" lon="2.3549453654800923"><ele>3.0</ele><time>2026-04-04T11:18:41Z</time></trkpt><trkpt lat="51.02588643438833" lon="2.355084785577566"><ele>3.0</ele><time>2026-04-04T11:18:44Z</time></trkpt><trkpt lat="51.025921856108575" lon="2.3552188092762205"><ele>3.0</ele><time>2026-04-04T11:18:46Z</time></trkpt><trkpt lat="51.02595812853941" lon="2.355347537490224"><ele>3.0</ele><time>2026-04-04T11:18:48Z</time></trkpt><trkpt lat="51.025987862193084" lon="2.3554856591424596"><ele>3.0</ele><time>2026-04-04T11:18:50Z</time></trkpt><trkpt lat="51.02601913438142" lon="2.355627670904354"><ele>3.0</ele><time>2026-04-04T11:18:52Z</time></trkpt><trkpt lat="51.026048683281545" lon="2.3557446896354017"><ele>3.0</ele><time>2026-04-04T11:18:54Z</time></trkpt><trkpt lat="51.02607077956357" lon="2.355870710512456"><ele>3.0</ele><time>2026-04-04T11:18:56Z</time></trkpt><trkpt lat="51.02609237030758" lon="2.355983275774123"><ele>2.9999999999999996</ele><time>2026-04-04T11:18:58Z</time></trkpt><trkpt lat="51.02611812232103" lon="2.356085791296286"><ele>3.0</ele><time>2026-04-04T11:18:59.999Z</time></trkpt><trkpt lat="51.02613833973197" lon="2.3561808121427696"><ele>3.0</ele><time>2026-04-04T11:19:01.999Z</time></trkpt><trkpt lat="51.026166739471016" lon="2.3563079995715044"><ele>3.0</ele><time>2026-04-04T11:19:04.999Z</time></trkpt><trkpt lat="51.02619615406672" lon="2.3564056084415776"><ele>3.0</ele><time>2026-04-04T11:19:06.999Z</time></trkpt><trkpt lat="51.02621104938414" lon="2.3565069512273826"><ele>2.9999999999999996</ele><time>2026-04-04T11:19:08.999Z</time></trkpt><trkpt lat="51.026238422070726" lon="2.3566463275355267"><ele>3.0</ele><time>2026-04-04T11:19:11.999Z</time></trkpt><trkpt lat="51.026268690213584" lon="2.356753679574724"><ele>3.0</ele><time>2026-04-04T11:19:13.999Z</time></trkpt><trkpt lat="51.02630212925108" lon="2.3568776103303746"><ele>3.0</ele><time>2026-04-04T11:19:15.999Z</time></trkpt><trkpt lat="51.026322337138005" lon="2.357007541610734"><ele>3.0</ele><time>2026-04-04T11:19:17.999Z</time></trkpt><trkpt lat="51.026349617259584" lon="2.357122345484354"><ele>3.0</ele><time>2026-04-04T11:19:19.999Z</time></trkpt><trkpt lat="51.02637705982513" lon="2.3572324005903544"><ele>3.0</ele><time>2026-04-04T11:19:21.999Z</time></trkpt><trkpt lat="51.026418347361684" lon="2.3573362147226975"><ele>3.0</ele><time>2026-04-04T11:19:23.999Z</time></trkpt><trkpt lat="51.02644571813769" lon="2.3574819185925007"><ele>3.4</ele><time>2026-04-04T11:19:25.999Z</time></trkpt><trkpt lat="51.026470871258915" lon="2.357629457520927"><ele>3.8</ele><time>2026-04-04T11:19:27.999Z</time></trkpt><trkpt lat="51.026503940356555" lon="2.357790388908015"><ele>4.2</ele><time>2026-04-04T11:19:29.999Z</time></trkpt><trkpt lat="51.02653819403121" lon="2.357923535813781"><ele>4.6</ele><time>2026-04-04T11:19:31.999Z</time></trkpt><trkpt lat="51.026562540212545" lon="2.3580513134444017"><ele>5.0</ele><time>2026-04-04T11:19:33.999Z</time></trkpt><trkpt lat="51.02659360867193" lon="2.3581863654748356"><ele>5.0</ele><time>2026-04-04T11:19:36.999Z</time></trkpt><trkpt lat="51.02663807524126" lon="2.3583070245275706"><ele>5.0</ele><time>2026-04-04T11:19:39.999Z</time></trkpt><trkpt lat="51.026674163669796" lon="2.3584567022316976"><ele>5.0</ele><time>2026-04-04T11:19:42.999Z</time></trkpt><trkpt lat="51.02670198196999" lon="2.358550357925737"><ele>5.0</ele><time>2026-04-04T11:19:44.999Z</time></trkpt><trkpt lat="51.02674075185952" lon="2.3586748659243577"><ele>5.0</ele><time>2026-04-04T11:19:47.999Z</time></trkpt><trkpt lat="51.02675528520076" lon="2.358802074622737"><ele>5.0</ele><time>2026-04-04T11:19:50.999Z</time></trkpt><trkpt lat="51.02678301573767" lon="2.358926915817146"><ele>5.0</ele><time>2026-04-04T11:19:53.999Z</time></trkpt><trkpt lat="51.02681859715074" lon="2.3590557253387265"><ele>5.0</ele><time>2026-04-04T11:19:56.999Z</time></trkpt><trkpt lat="51.02685398459131" lon="2.3591771898883946"><ele>5.0</ele><time>2026-04-04T11:19:59.999Z</time></trkpt><trkpt lat="51.02689706171806" lon="2.3592535160994297"><ele>5.0</ele><time>2026-04-04T11:20:02.999Z</time></trkpt><trkpt lat="51.02695999230058" lon="2.359306361790016"><ele>5.0</ele><time>2026-04-04T11:20:16.999Z</time></trkpt><trkpt lat="51.027045918318116" lon="2.359332661042604"><ele>5.0</ele><time>2026-04-04T11:20:19.999Z</time></trkpt><trkpt lat="51.02710491879647" lon="2.3594393438763785"><ele>5.0</ele><time>2026-04-04T11:20:23.999Z</time></trkpt><trkpt lat="51.027141904315215" lon="2.3595648403126943"><ele>5.0</ele><time>2026-04-04T11:20:27.999Z</time></trkpt><trkpt lat="51.02711401394607" lon="2.359664953472415"><ele>5.0</ele><time>2026-04-04T11:20:30.999Z</time></trkpt><trkpt lat="51.02708789305552" lon="2.359772318288324"><ele>5.0</ele><time>2026-04-04T11:20:34Z</time></trkpt><trkpt lat="51.027131446598446" lon="2.3598860858459787"><ele>5.0</ele><time>2026-04-04T11:20:37Z</time></trkpt><trkpt lat="51.02717345816441" lon="2.359982005354774"><ele>5.0</ele><time>2026-04-04T11:20:39Z</time></trkpt><trkpt lat="51.0272250324051" lon="2.360075983287265"><ele>4.5</ele><time>2026-04-04T11:20:41Z</time></trkpt><trkpt lat="51.02725305004296" lon="2.360169238475383"><ele>4.0</ele><time>2026-04-04T11:20:45Z</time></trkpt><trkpt lat="51.02718102210455" lon="2.3602289867251294"><ele>3.5</ele><time>2026-04-04T11:20:48Z</time></trkpt><trkpt lat="51.02721468858458" lon="2.3603515811745663"><ele>3.0</ele><time>2026-04-04T11:20:52Z</time></trkpt><trkpt lat="51.027237286971435" lon="2.3604919358010323"><ele>2.5</ele><time>2026-04-04T11:20:55Z</time></trkpt><trkpt lat="51.02724914378974" lon="2.360602248930837"><ele>2.0</ele><time>2026-04-04T11:20:57Z</time></trkpt><trkpt lat="51.02727454284021" lon="2.3607027873236155"><ele>1.8333333333333333</ele><time>2026-04-04T11:20:59Z</time></trkpt><trkpt lat="51.02730983362876" lon="2.3608211225614846"><ele>1.6666666666666665</ele><time>2026-04-04T11:21:01Z</time></trkpt><trkpt lat="51.02733473438728" lon="2.3609311313233343"><ele>1.5</ele><time>2026-04-04T11:21:03Z</time></trkpt><trkpt lat="51.02735345056858" lon="2.361072198016249"><ele>1.3333333333333333</ele><time>2026-04-04T11:21:06Z</time></trkpt><trkpt lat="51.027385020712124" lon="2.3611959814518864"><ele>1.1666666666666665</ele><time>2026-04-04T11:21:09Z</time></trkpt><trkpt lat="51.02741554689741" lon="2.3613099511016724"><ele>1.0</ele><time>2026-04-04T11:21:12Z</time></trkpt><trkpt lat="51.027450938155994" lon="2.3614467568962887"><ele>1.3333333333333333</ele><time>2026-04-04T11:21:15Z</time></trkpt><trkpt lat="51.027464062431584" lon="2.3615472315519743"><ele>1.6666666666666665</ele><time>2026-04-04T11:21:17Z</time></trkpt><trkpt lat="51.027490019630925" lon="2.361668628915219"><ele>2.0</ele><time>2026-04-04T11:21:19Z</time></trkpt><trkpt lat="51.02752143481147" lon="2.3617727971023617"><ele>2.3333333333333335</ele><time>2026-04-04T11:21:21Z</time></trkpt><trkpt lat="51.02755529202614" lon="2.3618922118525667"><ele>2.6666666666666665</ele><time>2026-04-04T11:21:23Z</time></trkpt><trkpt lat="51.02757755559105" lon="2.3620155498180546"><ele>3.0</ele><time>2026-04-04T11:21:25Z</time></trkpt><trkpt lat="51.02760049586062" lon="2.3621588714876527"><ele>3.1428571428571423</ele><time>2026-04-04T11:21:28Z</time></trkpt><trkpt lat="51.027627270222155" lon="2.3622529991033745"><ele>3.2857142857142856</ele><time>2026-04-04T11:21:29.999Z</time></trkpt><trkpt lat="51.02764629232249" lon="2.3623588296374347"><ele>3.4285714285714284</ele><time>2026-04-04T11:21:31.999Z</time></trkpt><trkpt lat="51.027658656745224" lon="2.362461137088073"><ele>3.571428571428571</ele><time>2026-04-04T11:21:33.999Z</time></trkpt><trkpt lat="51.02769443696432" lon="2.362553254601317"><ele>3.714285714285714</ele><time>2026-04-04T11:21:35.999Z</time></trkpt><trkpt lat="51.027715124285265" lon="2.3626856956404487"><ele>3.8571428571428568</ele><time>2026-04-04T11:21:38.999Z</time></trkpt><trkpt lat="51.02774300208659" lon="2.3627823354995727"><ele>4.0</ele><time>2026-04-04T11:21:41.999Z</time></trkpt><trkpt lat="51.027773068297336" lon="2.3628736458217294"><ele>3.9999999999999996</ele><time>2026-04-04T11:21:44.999Z</time></trkpt><trkpt lat="51.02779330865664" lon="2.3629767372636175"><ele>4.0</ele><time>2026-04-04T11:21:47.999Z</time></trkpt><trkpt lat="51.027822181529615" lon="2.3630777038516886"><ele>4.0</ele><time>2026-04-04T11:21:50.999Z</time></trkpt><trkpt lat="51.027862253922684" lon="2.3632086151962928"><ele>4.0</ele><time>2026-04-04T11:21:53.999Z</time></trkpt><trkpt lat="51.02789650342729" lon="2.363333554696963"><ele>3.9999999999999996</ele><time>2026-04-04T11:21:56.999Z</time></trkpt><trkpt lat="51.02792392325343" lon="2.3634424523233735"><ele>4.0</ele><time>2026-04-04T11:21:59.999Z</time></trkpt><trkpt lat="51.02795125863325" lon="2.3635489658143927"><ele>4.0</ele><time>2026-04-04T11:22:02.999Z</time></trkpt><trkpt lat="51.028000092463415" lon="2.3636599809486665"><ele>3.9999999999999996</ele><time>2026-04-04T11:22:05.999Z</time></trkpt><trkpt lat="51.028049095646686" lon="2.3637620208086414"><ele>4.0</ele><time>2026-04-04T11:22:08.999Z</time></trkpt><trkpt lat="51.02807337397251" lon="2.3638619464694157"><ele>4.0</ele><time>2026-04-04T11:22:11.999Z</time></trkpt><trkpt lat="51.028110265821745" lon="2.363947115592415"><ele>3.9999999999999996</ele><time>2026-04-04T11:22:14.999Z</time></trkpt><trkpt lat="51.02813633507812" lon="2.3640530266121087"><ele>4.0</ele><time>2026-04-04T11:23:08Z</time></trkpt><trkpt lat="51.02815528115731" lon="2.36415833898845"><ele>4.0</ele><time>2026-04-04T11:23:14Z</time></trkpt><trkpt lat="51.02824156524203" lon="2.3642915801607427"><ele>3.8571428571428568</ele><time>2026-04-04T11:23:18Z</time></trkpt><trkpt lat="51.02828246761612" lon="2.3643868913255544"><ele>3.714285714285714</ele><time>2026-04-04T11:23:19Z</time></trkpt><trkpt lat="51.02830440517022" lon="2.3644942254475496"><ele>3.571428571428571</ele><time>2026-04-04T11:23:22Z</time></trkpt><trkpt lat="51.02833532176304" lon="2.3646044929364707"><ele>3.4285714285714284</ele><time>2026-04-04T11:23:26Z</time></trkpt><trkpt lat="51.02838006019303" lon="2.3646764293942604"><ele>3.2857142857142856</ele><time>2026-04-04T11:23:29.999Z</time></trkpt><trkpt lat="51.02841636725099" lon="2.3647584162523128"><ele>3.1428571428571423</ele><time>2026-04-04T11:23:33.999Z</time></trkpt><trkpt lat="51.02846018976822" lon="2.364864035780207"><ele>3.0</ele><time>2026-04-04T11:23:38.999Z</time></trkpt><trkpt lat="51.02849183645249" lon="2.3649559439327854"><ele>2.714285714285714</ele><time>2026-04-04T11:23:42.999Z</time></trkpt><trkpt lat="51.0285234739784" lon="2.3650644905074727"><ele>2.4285714285714284</ele><time>2026-04-04T11:23:46.999Z</time></trkpt><trkpt lat="51.028559877209716" lon="2.3651693367088056"><ele>2.142857142857143</ele><time>2026-04-04T11:23:50.999Z</time></trkpt><trkpt lat="51.0285892606287" lon="2.3652595565679495"><ele>1.857142857142857</ele><time>2026-04-04T11:23:53.999Z</time></trkpt><trkpt lat="51.028628304000264" lon="2.3653484227390633"><ele>1.5714285714285712</ele><time>2026-04-04T11:23:56.999Z</time></trkpt><trkpt lat="51.02865778035196" lon="2.36544751563576"><ele>1.2857142857142856</ele><time>2026-04-04T11:23:59.999Z</time></trkpt><trkpt lat="51.028690943142934" lon="2.3655348905723024"><ele>1.0</ele><time>2026-04-04T11:24:03.999Z</time></trkpt><trkpt lat="51.028709137417984" lon="2.365650397940002"><ele>1.0</ele><time>2026-04-04T11:24:07.999Z</time></trkpt><trkpt lat="51.02872852297273" lon="2.3657518743162833"><ele>0.9999999999999999</ele><time>2026-04-04T11:24:11.999Z</time></trkpt><trkpt lat="51.02874936947771" lon="2.3658503154209996"><ele>1.0</ele><time>2026-04-04T11:24:14.999Z</time></trkpt><trkpt lat="51.02876418797331" lon="2.3659516645939425"><ele>1.0</ele><time>2026-04-04T11:24:17.999Z</time></trkpt><trkpt lat="51.028792574205994" lon="2.366091013017163"><ele>0.9999999999999999</ele><time>2026-04-04T11:24:20.999Z</time></trkpt><trkpt lat="51.028810196596474" lon="2.366196693481894"><ele>1.0</ele><time>2026-04-04T11:24:22.999Z</time></trkpt><trkpt lat="51.02883028368089" lon="2.3663213657381053"><ele>1.0</ele><time>2026-04-04T11:24:24.999Z</time></trkpt><trkpt lat="51.02885320291724" lon="2.366458358651642"><ele>1.4</ele><time>2026-04-04T11:24:26.999Z</time></trkpt><trkpt lat="51.0288766308108" lon="2.3666091271595397"><ele>1.8</ele><time>2026-04-04T11:24:28.999Z</time></trkpt><trkpt lat="51.028905314354816" lon="2.366769082820125"><ele>2.1999999999999997</ele><time>2026-04-04T11:24:30.999Z</time></trkpt><trkpt lat="51.0289335170722" lon="2.3669344247231696"><ele>2.6</ele><time>2026-04-04T11:24:32.999Z</time></trkpt><trkpt lat="51.02896308917437" lon="2.3670964267209467"><ele>3.0</ele><time>2026-04-04T11:24:34.999Z</time></trkpt><trkpt lat="51.02899058711343" lon="2.367249759357029"><ele>3.4</ele><time>2026-04-04T11:24:36.999Z</time></trkpt><trkpt lat="51.02901873332698" lon="2.367396426116489"><ele>3.8</ele><time>2026-04-04T11:24:38.999Z</time></trkpt><trkpt lat="51.02904350764643" lon="2.367547751698224"><ele>4.2</ele><time>2026-04-04T11:24:40.999Z</time></trkpt><trkpt lat="51.029075850358325" lon="2.367696304680032"><ele>4.6</ele><time>2026-04-04T11:24:42.999Z</time></trkpt><trkpt lat="51.02910211315236" lon="2.367831223908778"><ele>5.0</ele><time>2026-04-04T11:24:45Z</time></trkpt><trkpt lat="51.02912814850691" lon="2.3679599599435286"><ele>4.6</ele><time>2026-04-04T11:24:47Z</time></trkpt><trkpt lat="51.02916639690933" lon="2.3680974728341613"><ele>4.2</ele><time>2026-04-04T11:24:49Z</time></trkpt><trkpt lat="51.02918225305352" lon="2.3682464021190284"><ele>3.8</ele><time>2026-04-04T11:24:51Z</time></trkpt><trkpt lat="51.029204345477574" lon="2.3683881943413745"><ele>3.4</ele><time>2026-04-04T11:24:53Z</time></trkpt><trkpt lat="51.029217254971684" lon="2.3685256508456636"><ele>3.0</ele><time>2026-04-04T11:24:55Z</time></trkpt><trkpt lat="51.029226700427586" lon="2.368656172310984"><ele>3.0</ele><time>2026-04-04T11:24:57Z</time></trkpt><trkpt lat="51.02923859487624" lon="2.368759020902949"><ele>3.0</ele><time>2026-04-04T11:24:59Z</time></trkpt><trkpt lat="51.02925269797537" lon="2.3688809095991274"><ele>3.0</ele><time>2026-04-04T11:25:01Z</time></trkpt><trkpt lat="51.02926186541446" lon="2.368983752283377"><ele>3.0</ele><time>2026-04-04T11:25:03Z</time></trkpt><trkpt lat="51.02931843921442" lon="2.369103824844594"><ele>3.0</ele><time>2026-04-04T11:25:07Z</time></trkpt><trkpt lat="51.029342172153065" lon="2.36926054582005"><ele>3.0</ele><time>2026-04-04T11:25:12Z</time></trkpt><trkpt lat="51.029353571787844" lon="2.369361891529782"><ele>3.0</ele><time>2026-04-04T11:25:14Z</time></trkpt><trkpt lat="51.02938615747163" lon="2.3694959585825557"><ele>3.0</ele><time>2026-04-04T11:25:17.999Z</time></trkpt><trkpt lat="51.02941423068955" lon="2.3695875499341588"><ele>3.0</ele><time>2026-04-04T11:25:19.999Z</time></trkpt><trkpt lat="51.029453896398316" lon="2.369678959996238"><ele>3.0</ele><time>2026-04-04T11:25:22.999Z</time></trkpt><trkpt lat="51.029495577483004" lon="2.3698017684408974"><ele>3.0</ele><time>2026-04-04T11:25:26.999Z</time></trkpt><trkpt lat="51.029527217371935" lon="2.369915066006119"><ele>3.0</ele><time>2026-04-04T11:25:29.999Z</time></trkpt><trkpt lat="51.02954753908965" lon="2.370020501464169"><ele>3.0</ele><time>2026-04-04T11:25:31.999Z</time></trkpt><trkpt lat="51.02956400462095" lon="2.370160434930513"><ele>3.0</ele><time>2026-04-04T11:25:34.999Z</time></trkpt><trkpt lat="51.02958655892946" lon="2.370266386200804"><ele>3.0</ele><time>2026-04-04T11:25:37.999Z</time></trkpt><trkpt lat="51.029610856363476" lon="2.3703846750186064"><ele>3.0</ele><time>2026-04-04T11:25:40.999Z</time></trkpt><trkpt lat="51.02964259514957" lon="2.3705141418869236"><ele>3.0</ele><time>2026-04-04T11:25:43.999Z</time></trkpt><trkpt lat="51.029661801114976" lon="2.3706200437447027"><ele>3.0</ele><time>2026-04-04T11:25:45.999Z</time></trkpt><trkpt lat="51.02968465475367" lon="2.3707175781611802"><ele>3.1666666666666665</ele><time>2026-04-04T11:25:47.999Z</time></trkpt><trkpt lat="51.029721381507485" lon="2.370846090614317"><ele>3.333333333333333</ele><time>2026-04-04T11:25:50.999Z</time></trkpt><trkpt lat="51.02975648029116" lon="2.3709603980001894"><ele>3.5</ele><time>2026-04-04T11:25:53.999Z</time></trkpt><trkpt lat="51.02979150453176" lon="2.3711000724852807"><ele>3.6666666666666665</ele><time>2026-04-04T11:25:56.999Z</time></trkpt><trkpt lat="51.029849141413294" lon="2.3711629870543427"><ele>3.833333333333333</ele><time>2026-04-04T11:25:58.999Z</time></trkpt><trkpt lat="51.02991772700666" lon="2.371185792144484"><ele>4.0</ele><time>2026-04-04T11:26:00.999Z</time></trkpt><trkpt lat="51.029997879202185" lon="2.371171513313681"><ele>4.4</ele><time>2026-04-04T11:26:03.999Z</time></trkpt><trkpt lat="51.030123718185045" lon="2.3711488073439413"><ele>4.800000000000001</ele><time>2026-04-04T11:26:06.999Z</time></trkpt><trkpt lat="51.0301878882453" lon="2.371245273124812"><ele>5.199999999999999</ele><time>2026-04-04T11:26:08.999Z</time></trkpt><trkpt lat="51.030251756214994" lon="2.371207279709463"><ele>5.6</ele><time>2026-04-04T11:26:10.999Z</time></trkpt><trkpt lat="51.03037789601169" lon="2.371188736147172"><ele>6.0</ele><time>2026-04-04T11:26:16.999Z</time></trkpt><trkpt lat="51.03046392224118" lon="2.37113890692537"><ele>6.0</ele><time>2026-04-04T11:26:19.999Z</time></trkpt><trkpt lat="51.030539142331406" lon="2.3711225060767305"><ele>6.0</ele><time>2026-04-04T11:26:22.999Z</time></trkpt><trkpt lat="51.03064993517045" lon="2.371129483480994"><ele>6.0</ele><time>2026-04-04T11:26:26.999Z</time></trkpt><trkpt lat="51.03071752075611" lon="2.371154708844137"><ele>6.0</ele><time>2026-04-04T11:26:29.999Z</time></trkpt><trkpt lat="51.030753066604454" lon="2.3712466172080044"><ele>6.0</ele><time>2026-04-04T11:26:34.999Z</time></trkpt><trkpt lat="51.030774374437016" lon="2.3713789759837147"><ele>6.0</ele><time>2026-04-04T11:27:02Z</time></trkpt><trkpt lat="51.03083167520419" lon="2.371476681716627"><ele>6.0</ele><time>2026-04-04T11:27:05Z</time></trkpt><trkpt lat="51.03089025576447" lon="2.3716051828134286"><ele>6.0</ele><time>2026-04-04T11:27:08Z</time></trkpt><trkpt lat="51.03088494208673" lon="2.3717116888177094"><ele>6.0</ele><time>2026-04-04T11:27:10Z</time></trkpt><trkpt lat="51.030906343954044" lon="2.3718299670041096"><ele>6.0</ele><time>2026-04-04T11:27:12Z</time></trkpt><trkpt lat="51.03093573232484" lon="2.3719303690220284"><ele>6.0</ele><time>2026-04-04T11:27:14Z</time></trkpt><trkpt lat="51.03095224423893" lon="2.3720360915941296"><ele>6.0</ele><time>2026-04-04T11:27:17Z</time></trkpt><trkpt lat="51.03092746416836" lon="2.3721420978458485"><ele>6.0</ele><time>2026-04-04T11:28:10.999Z</time></trkpt><trkpt lat="51.03094937386523" lon="2.3722378705572"><ele>6.0</ele><time>2026-04-04T11:28:13.999Z</time></trkpt><trkpt lat="51.031071162143625" lon="2.372304528233375"><ele>6.0</ele><time>2026-04-04T11:28:17.999Z</time></trkpt><trkpt lat="51.03113775604079" lon="2.3722662848816536"><ele>6.0</ele><time>2026-04-04T11:28:19.999Z</time></trkpt><trkpt lat="51.03120600813837" lon="2.3722393718676513"><ele>6.0</ele><time>2026-04-04T11:28:21.999Z</time></trkpt><trkpt lat="51.03127468890335" lon="2.3722112949451795"><ele>6.0</ele><time>2026-04-04T11:28:23.999Z</time></trkpt><trkpt lat="51.031352252341236" lon="2.372202021511638"><ele>6.0</ele><time>2026-04-04T11:28:25.999Z</time></trkpt><trkpt lat="51.031427118709495" lon="2.3721857002762508"><ele>6.0</ele><time>2026-04-04T11:28:27.999Z</time></trkpt><trkpt lat="51.03149864899017" lon="2.3721807593336304"><ele>6.0</ele><time>2026-04-04T11:28:29.999Z</time></trkpt><trkpt lat="51.0316026833755" lon="2.3721539371018547"><ele>6.0</ele><time>2026-04-04T11:28:32.999Z</time></trkpt><trkpt lat="51.031680481066864" lon="2.372137068227741"><ele>6.0</ele><time>2026-04-04T11:28:34.999Z</time></trkpt><trkpt lat="51.03174696131593" lon="2.3721330744537195"><ele>6.0</ele><time>2026-04-04T11:28:36.999Z</time></trkpt><trkpt lat="51.03181904986002" lon="2.3721180935113564"><ele>6.199999999999999</ele><time>2026-04-04T11:28:38.999Z</time></trkpt><trkpt lat="51.03190172973515" lon="2.3721041177718796"><ele>6.3999999999999995</ele><time>2026-04-04T11:28:40.999Z</time></trkpt><trkpt lat="51.03205935878324" lon="2.372150144080154"><ele>6.6</ele><time>2026-04-04T11:28:47.999Z</time></trkpt><trkpt lat="51.03212174878913" lon="2.3720591306438465"><ele>6.8</ele><time>2026-04-04T11:28:49.999Z</time></trkpt><trkpt lat="51.03217406598685" lon="2.371942852616834"><ele>7.0</ele><time>2026-04-04T11:28:51.999Z</time></trkpt><trkpt lat="51.03223016258017" lon="2.3718603839059473"><ele>7.0</ele><time>2026-04-04T11:29:18Z</time></trkpt><trkpt lat="51.03221789746885" lon="2.3717279223166767"><ele>6.999999999999999</ele><time>2026-04-04T11:29:21Z</time></trkpt><trkpt lat="51.03224824204614" lon="2.3716157430829985"><ele>6.999999999999999</ele><time>2026-04-04T11:29:24Z</time></trkpt><trkpt lat="51.03244743775101" lon="2.371627073294864"><ele>7.0</ele><time>2026-04-04T11:29:31Z</time></trkpt><trkpt lat="51.03251412872003" lon="2.371627084186747"><ele>7.0</ele><time>2026-04-04T11:29:33Z</time></trkpt><trkpt lat="51.03262796268479" lon="2.3716407299255677"><ele>6.8</ele><time>2026-04-04T11:29:36Z</time></trkpt><trkpt lat="51.03269564245141" lon="2.3715638123625027"><ele>6.6</ele><time>2026-04-04T11:29:38Z</time></trkpt><trkpt lat="51.03281662667458" lon="2.371545281827953"><ele>6.3999999999999995</ele><time>2026-04-04T11:29:42Z</time></trkpt><trkpt lat="51.03289354126042" lon="2.371578790690818"><ele>6.199999999999999</ele><time>2026-04-04T11:29:45Z</time></trkpt><trkpt lat="51.032989454577454" lon="2.3715983570776626"><ele>6.0</ele><time>2026-04-04T11:29:48Z</time></trkpt><trkpt lat="51.03305910978311" lon="2.3716328882232753"><ele>6.0</ele><time>2026-04-04T11:29:50Z</time></trkpt><trkpt lat="51.03311976158374" lon="2.3716941692327347"><ele>6.0</ele><time>2026-04-04T11:29:52Z</time></trkpt><trkpt lat="51.033192673995366" lon="2.3717208024706333"><ele>6.0</ele><time>2026-04-04T11:29:54Z</time></trkpt><trkpt lat="51.03325760307121" lon="2.3717331728067927"><ele>6.0</ele><time>2026-04-04T11:29:56Z</time></trkpt><trkpt lat="51.033351755502636" lon="2.3717526219809986"><ele>6.0</ele><time>2026-04-04T11:29:59Z</time></trkpt><trkpt lat="51.03342316745189" lon="2.3717889397643006"><ele>6.0</ele><time>2026-04-04T11:30:01Z</time></trkpt><trkpt lat="51.03350183709615" lon="2.3718075459168864"><ele>6.166666666666667</ele><time>2026-04-04T11:30:03Z</time></trkpt><trkpt lat="51.033621829736745" lon="2.3718443203703443"><ele>6.333333333333334</ele><time>2026-04-04T11:30:06Z</time></trkpt><trkpt lat="51.0336975260561" lon="2.371865630800047"><ele>6.5</ele><time>2026-04-04T11:30:08Z</time></trkpt><trkpt lat="51.033771480080404" lon="2.371886777857246"><ele>6.666666666666667</ele><time>2026-04-04T11:30:10Z</time></trkpt><trkpt lat="51.03384049182228" lon="2.3719160283916545"><ele>6.833333333333334</ele><time>2026-04-04T11:30:12Z</time></trkpt><trkpt lat="51.03390899475911" lon="2.3719314463555046"><ele>7.0</ele><time>2026-04-04T11:30:14.999Z</time></trkpt><trkpt lat="51.03400543613799" lon="2.371965563629354"><ele>7.000000000000001</ele><time>2026-04-04T11:30:17.999Z</time></trkpt><trkpt lat="51.034101251458246" lon="2.3720010251293147"><ele>7.0</ele><time>2026-04-04T11:30:19.999Z</time></trkpt><trkpt lat="51.03417870735936" lon="2.3720284543642363"><ele>7.0</ele><time>2026-04-04T11:30:21.999Z</time></trkpt><trkpt lat="51.03424543395832" lon="2.372047282758945"><ele>7.0</ele><time>2026-04-04T11:30:23.999Z</time></trkpt><trkpt lat="51.03431289237002" lon="2.3720640635228856"><ele>7.000000000000001</ele><time>2026-04-04T11:30:25.999Z</time></trkpt><trkpt lat="51.03438590752507" lon="2.372100440414152"><ele>7.0</ele><time>2026-04-04T11:30:27.999Z</time></trkpt><trkpt lat="51.034457786049735" lon="2.3721201657216007"><ele>6.857142857142857</ele><time>2026-04-04T11:30:29.999Z</time></trkpt><trkpt lat="51.034537575531374" lon="2.3721388991563934"><ele>6.714285714285714</ele><time>2026-04-04T11:30:32.999Z</time></trkpt><trkpt lat="51.03460774572763" lon="2.372167416587293"><ele>6.571428571428571</ele><time>2026-04-04T11:30:33.999Z</time></trkpt><trkpt lat="51.03468435025277" lon="2.3721815533447876"><ele>6.428571428571429</ele><time>2026-04-04T11:30:34.999Z</time></trkpt><trkpt lat="51.034763130495676" lon="2.372192874475461"><ele>6.285714285714286</ele><time>2026-04-04T11:30:36.999Z</time></trkpt><trkpt lat="51.034832482946705" lon="2.3722111896380946"><ele>6.142857142857142</ele><time>2026-04-04T11:30:38.999Z</time></trkpt><trkpt lat="51.03489691550758" lon="2.372235660477034"><ele>6.0</ele><time>2026-04-04T11:30:40.999Z</time></trkpt><trkpt lat="51.03497429207946" lon="2.3722624464764035"><ele>5.833333333333333</ele><time>2026-04-04T11:30:42.999Z</time></trkpt><trkpt lat="51.03505772069883" lon="2.3722814749160306"><ele>5.666666666666667</ele><time>2026-04-04T11:30:44.999Z</time></trkpt><trkpt lat="51.03514888695473" lon="2.3723120499399375"><ele>5.5</ele><time>2026-04-04T11:30:46.999Z</time></trkpt><trkpt lat="51.0352260648831" lon="2.3723482551870987"><ele>5.333333333333334</ele><time>2026-04-04T11:30:48.999Z</time></trkpt><trkpt lat="51.03529559388093" lon="2.3723718154782"><ele>5.166666666666667</ele><time>2026-04-04T11:30:50.999Z</time></trkpt><trkpt lat="51.035369053082235" lon="2.3723979389014063"><ele>5.0</ele><time>2026-04-04T11:30:52.999Z</time></trkpt><trkpt lat="51.03544961045359" lon="2.3724222124795697"><ele>5.0</ele><time>2026-04-04T11:30:54.999Z</time></trkpt><trkpt lat="51.03556998569179" lon="2.3724517691001146"><ele>5.0</ele><time>2026-04-04T11:31:07Z</time></trkpt><trkpt lat="51.03563476962639" lon="2.372481941261711"><ele>5.0</ele><time>2026-04-04T11:31:09Z</time></trkpt><trkpt lat="51.03569403597149" lon="2.372558593048744"><ele>5.0</ele><time>2026-04-04T11:31:11Z</time></trkpt><trkpt lat="51.035774067390975" lon="2.3726074785838045"><ele>5.0</ele><time>2026-04-04T11:31:13Z</time></trkpt><trkpt lat="51.03585607323179" lon="2.372678226031527"><ele>5.0</ele><time>2026-04-04T11:31:15Z</time></trkpt><trkpt lat="51.035935293359145" lon="2.372720620976136"><ele>5.5</ele><time>2026-04-04T11:31:17Z</time></trkpt><trkpt lat="51.03601290048754" lon="2.372775728317433"><ele>6.0</ele><time>2026-04-04T11:31:19Z</time></trkpt><trkpt lat="51.036087814953106" lon="2.3728354577213557"><ele>6.5</ele><time>2026-04-04T11:31:21Z</time></trkpt><trkpt lat="51.036161913515684" lon="2.372886014927919"><ele>7.0</ele><time>2026-04-04T11:31:23Z</time></trkpt><trkpt lat="51.036230797700654" lon="2.372940382531382"><ele>7.499999999999999</ele><time>2026-04-04T11:31:25Z</time></trkpt><trkpt lat="51.03631953858203" lon="2.3729851428868014"><ele>8.0</ele><time>2026-04-04T11:31:27Z</time></trkpt><trkpt lat="51.03642211374135" lon="2.373043815946581"><ele>8.0</ele><time>2026-04-04T11:31:29Z</time></trkpt><trkpt lat="51.036524584755504" lon="2.373122778677612"><ele>8.0</ele><time>2026-04-04T11:31:31Z</time></trkpt><trkpt lat="51.03661990976396" lon="2.3731814078454754"><ele>8.0</ele><time>2026-04-04T11:31:33Z</time></trkpt><trkpt lat="51.036705798116536" lon="2.37326150082533"><ele>8.0</ele><time>2026-04-04T11:31:35Z</time></trkpt><trkpt lat="51.03679001054577" lon="2.3733232340097294"><ele>8.0</ele><time>2026-04-04T11:31:37Z</time></trkpt><trkpt lat="51.03686909740046" lon="2.3733789310347837"><ele>7.428571428571428</ele><time>2026-04-04T11:31:39Z</time></trkpt><trkpt lat="51.03694491407875" lon="2.3734366992621765"><ele>6.857142857142856</ele><time>2026-04-04T11:31:41Z</time></trkpt><trkpt lat="51.03701079075476" lon="2.3735031535215634"><ele>6.285714285714286</ele><time>2026-04-04T11:31:43Z</time></trkpt><trkpt lat="51.03706696229395" lon="2.3735671264632217"><ele>5.7142857142857135</ele><time>2026-04-04T11:31:45Z</time></trkpt><trkpt lat="51.03712432601057" lon="2.3736184317334037"><ele>5.142857142857142</ele><time>2026-04-04T11:31:47Z</time></trkpt><trkpt lat="51.037181449676034" lon="2.37366838621889"><ele>4.571428571428571</ele><time>2026-04-04T11:31:49Z</time></trkpt><trkpt lat="51.03723993741221" lon="2.3737272154645854"><ele>4.0</ele><time>2026-04-04T11:31:51Z</time></trkpt><trkpt lat="51.037306920698356" lon="2.3737970523955694"><ele>3.8000000000000003</ele><time>2026-04-04T11:31:53Z</time></trkpt><trkpt lat="51.03737941206" lon="2.3738949488443506"><ele>3.6000000000000005</ele><time>2026-04-04T11:31:55Z</time></trkpt><trkpt lat="51.03746213631956" lon="2.3739991165517886"><ele>3.4</ele><time>2026-04-04T11:31:57Z</time></trkpt><trkpt lat="51.03754321711822" lon="2.374099256523734"><ele>3.2</ele><time>2026-04-04T11:31:59Z</time></trkpt><trkpt lat="51.03761438111398" lon="2.374195368613354"><ele>3.0</ele><time>2026-04-04T11:32:01Z</time></trkpt><trkpt lat="51.037688992139415" lon="2.3742721837611596"><ele>3.0</ele><time>2026-04-04T11:32:03Z</time></trkpt><trkpt lat="51.03774014791707" lon="2.3743606043143384"><ele>3.0</ele><time>2026-04-04T11:32:05Z</time></trkpt><trkpt lat="51.03779205226126" lon="2.3744462846575463"><ele>3.0</ele><time>2026-04-04T11:32:07Z</time></trkpt><trkpt lat="51.03785209070992" lon="2.374540103042158"><ele>3.0</ele><time>2026-04-04T11:32:09Z</time></trkpt><trkpt lat="51.03791075961298" lon="2.3746368993435825"><ele>3.0</ele><time>2026-04-04T11:32:11Z</time></trkpt><trkpt lat="51.037978698105654" lon="2.374746640773042"><ele>3.0</ele><time>2026-04-04T11:32:13Z</time></trkpt><trkpt lat="51.038045931788695" lon="2.374868339831774"><ele>3.0</ele><time>2026-04-04T11:32:15Z</time></trkpt><trkpt lat="51.03811654911422" lon="2.374983771740189"><ele>3.0</ele><time>2026-04-04T11:32:16.999Z</time></trkpt><trkpt lat="51.03817176651195" lon="2.3751026251354084"><ele>3.0</ele><time>2026-04-04T11:32:18.999Z</time></trkpt><trkpt lat="51.038219027949516" lon="2.3751756289444526"><ele>3.0</ele><time>2026-04-04T11:32:20.999Z</time></trkpt><trkpt lat="51.038278987017726" lon="2.37527163779867"><ele>3.0</ele><time>2026-04-04T11:32:22.999Z</time></trkpt><trkpt lat="51.038330986906495" lon="2.3753967493899997"><ele>3.0</ele><time>2026-04-04T11:32:24.999Z</time></trkpt><trkpt lat="51.03837022013408" lon="2.375496338079243"><ele>3.2</ele><time>2026-04-04T11:32:26.999Z</time></trkpt><trkpt lat="51.03841118958821" lon="2.3756194031782085"><ele>3.4</ele><time>2026-04-04T11:32:28.999Z</time></trkpt><trkpt lat="51.038434535672934" lon="2.3757631809318975"><ele>3.6000000000000005</ele><time>2026-04-04T11:32:30.999Z</time></trkpt><trkpt lat="51.038483013084864" lon="2.375900789668995"><ele>3.8000000000000003</ele><time>2026-04-04T11:32:32.999Z</time></trkpt><trkpt lat="51.03852275142818" lon="2.376039691150797"><ele>4.0</ele><time>2026-04-04T11:32:34.999Z</time></trkpt><trkpt lat="51.03855081080568" lon="2.376176273773115"><ele>3.9999999999999996</ele><time>2026-04-04T11:32:36.999Z</time></trkpt><trkpt lat="51.038582538873506" lon="2.3763095808764763"><ele>4.0</ele><time>2026-04-04T11:32:38.999Z</time></trkpt><trkpt lat="51.038617954334725" lon="2.3764263648472346"><ele>4.0</ele><time>2026-04-04T11:32:40.999Z</time></trkpt><trkpt lat="51.03864838715941" lon="2.376542801535807"><ele>4.0</ele><time>2026-04-04T11:32:42.999Z</time></trkpt><trkpt lat="51.03868601141722" lon="2.3766527422551493"><ele>3.9999999999999996</ele><time>2026-04-04T11:32:44.999Z</time></trkpt><trkpt lat="51.03871063439625" lon="2.3767588713870946"><ele>4.0</ele><time>2026-04-04T11:32:46.999Z</time></trkpt><trkpt lat="51.03874626488507" lon="2.3768699793721173"><ele>4.6</ele><time>2026-04-04T11:32:48.999Z</time></trkpt><trkpt lat="51.038786152642935" lon="2.376988794865561"><ele>5.2</ele><time>2026-04-04T11:32:50.999Z</time></trkpt><trkpt lat="51.03882848052745" lon="2.377136237935384"><ele>5.799999999999999</ele><time>2026-04-04T11:32:52.999Z</time></trkpt><trkpt lat="51.038878126620666" lon="2.377290464038013"><ele>6.3999999999999995</ele><time>2026-04-04T11:32:54.999Z</time></trkpt><trkpt lat="51.03884506895169" lon="2.37742069879612"><ele>7.0</ele><time>2026-04-04T11:32:55.999Z</time></trkpt><trkpt lat="51.03890065559134" lon="2.3775690482953107"><ele>6.8</ele><time>2026-04-04T11:32:57.999Z</time></trkpt><trkpt lat="51.03895057619075" lon="2.3776926044163416"><ele>6.6</ele><time>2026-04-04T11:32:59.999Z</time></trkpt><trkpt lat="51.03909044572195" lon="2.377625777561711"><ele>6.3999999999999995</ele><time>2026-04-04T11:33:00.999Z</time></trkpt><trkpt lat="51.03916502718951" lon="2.37769160345856"><ele>6.199999999999999</ele><time>2026-04-04T11:33:02.999Z</time></trkpt><trkpt lat="51.039224821646584" lon="2.3777683562376852"><ele>6.0</ele><time>2026-04-04T11:33:04.999Z</time></trkpt><trkpt lat="51.039283964407744" lon="2.3778250118688544"><ele>5.999999999999999</ele><time>2026-04-04T11:33:06.999Z</time></trkpt><trkpt lat="51.03933541618492" lon="2.377891471232815"><ele>6.0</ele><time>2026-04-04T11:33:09Z</time></trkpt><trkpt lat="51.0393910000088" lon="2.3779548059828444"><ele>6.0</ele><time>2026-04-04T11:33:24Z</time></trkpt><trkpt lat="51.039450019445965" lon="2.378002830622149"><ele>6.0</ele><time>2026-04-04T11:33:27Z</time></trkpt><trkpt lat="51.03951246205752" lon="2.3780313095629055"><ele>6.0</ele><time>2026-04-04T11:33:29Z</time></trkpt><trkpt lat="51.039572778733486" lon="2.3780774201004764"><ele>5.999999999999999</ele><time>2026-04-04T11:33:31Z</time></trkpt><trkpt lat="51.039640134005325" lon="2.378126924797132"><ele>6.0</ele><time>2026-04-04T11:33:33Z</time></trkpt><trkpt lat="51.03970163918672" lon="2.37817381856989"><ele>5.833333333333333</ele><time>2026-04-04T11:33:35Z</time></trkpt><trkpt lat="51.0397689672992" lon="2.3782109155509605"><ele>5.666666666666667</ele><time>2026-04-04T11:33:37Z</time></trkpt><trkpt lat="51.039839817569515" lon="2.378228749938568"><ele>5.5</ele><time>2026-04-04T11:33:39Z</time></trkpt><trkpt lat="51.03994884459212" lon="2.3782661198728388"><ele>5.333333333333334</ele><time>2026-04-04T11:33:42Z</time></trkpt><trkpt lat="51.03998774465137" lon="2.378344899574538"><ele>5.166666666666667</ele><time>2026-04-04T11:33:44Z</time></trkpt><trkpt lat="51.040011009007294" lon="2.3784446899055065"><ele>5.0</ele><time>2026-04-04T11:33:48Z</time></trkpt><trkpt lat="51.040053225758335" lon="2.3785457160179675"><ele>5.0</ele><time>2026-04-04T11:33:51Z</time></trkpt><trkpt lat="51.0400813473116" lon="2.3786414317755127"><ele>5.0</ele><time>2026-04-04T11:33:56Z</time></trkpt><trkpt lat="51.04004425909826" lon="2.3787251016028668"><ele>5.0</ele><time>2026-04-04T11:34:29.999Z</time></trkpt><trkpt lat="51.04002410381668" lon="2.37884535548267"><ele>5.0</ele><time>2026-04-04T11:34:32.999Z</time></trkpt><trkpt lat="51.040106236960675" lon="2.3789285804985023"><ele>5.0</ele><time>2026-04-04T11:34:34.999Z</time></trkpt><trkpt lat="51.040162215899464" lon="2.3790171555890782"><ele>5.0</ele><time>2026-04-04T11:34:36.999Z</time></trkpt><trkpt lat="51.040226234784" lon="2.3791180892921617"><ele>5.5</ele><time>2026-04-04T11:34:38.999Z</time></trkpt><trkpt lat="51.040276646501646" lon="2.3792113962639596"><ele>6.0</ele><time>2026-04-04T11:34:40.999Z</time></trkpt><trkpt lat="51.04033097087004" lon="2.379289068480453"><ele>6.5</ele><time>2026-04-04T11:34:42.999Z</time></trkpt><trkpt lat="51.04036093370301" lon="2.3793868237893987"><ele>7.0</ele><time>2026-04-04T11:34:44.999Z</time></trkpt><trkpt lat="51.04040968026972" lon="2.379494795460735"><ele>7.499999999999999</ele><time>2026-04-04T11:34:47.999Z</time></trkpt><trkpt lat="51.04045267584771" lon="2.379614554942745"><ele>8.0</ele><time>2026-04-04T11:34:50.999Z</time></trkpt><trkpt lat="51.04048388027191" lon="2.379713973340503"><ele>8.200000000000001</ele><time>2026-04-04T11:34:52.999Z</time></trkpt><trkpt lat="51.040555197401694" lon="2.3797909596723885"><ele>8.4</ele><time>2026-04-04T11:34:54.999Z</time></trkpt><trkpt lat="51.040571849363566" lon="2.379910614118254"><ele>8.600000000000001</ele><time>2026-04-04T11:34:56.999Z</time></trkpt><trkpt lat="51.040627183380295" lon="2.380038334960699"><ele>8.8</ele><time>2026-04-04T11:34:58.999Z</time></trkpt><trkpt lat="51.0406552377203" lon="2.3801898401833332"><ele>9.0</ele><time>2026-04-04T11:35:00.999Z</time></trkpt><trkpt lat="51.040713075243325" lon="2.3803076087409756"><ele>9.0</ele><time>2026-04-04T11:35:02.999Z</time></trkpt><trkpt lat="51.04073584608897" lon="2.380419788173301"><ele>9.0</ele><time>2026-04-04T11:35:04.999Z</time></trkpt><trkpt lat="51.04070554142538" lon="2.380531428303703"><ele>9.0</ele><time>2026-04-04T11:35:06.999Z</time></trkpt><trkpt lat="51.04064220496678" lon="2.380574416850758"><ele>9.0</ele><time>2026-04-04T11:35:07.999Z</time></trkpt><trkpt lat="51.04052746675164" lon="2.3805968354444924"><ele>9.0</ele><time>2026-04-04T11:35:09.999Z</time></trkpt><trkpt lat="51.040462451232955" lon="2.3806146920074345"><ele>9.0</ele><time>2026-04-04T11:35:10.999Z</time></trkpt><trkpt lat="51.04036834948116" lon="2.380605198054207"><ele>9.0</ele><time>2026-04-04T11:35:12.999Z</time></trkpt><trkpt lat="51.04028871270692" lon="2.3806254888224583"><ele>9.0</ele><time>2026-04-04T11:35:15Z</time></trkpt><trkpt lat="51.040185134631095" lon="2.3806227915041656"><ele>9.0</ele><time>2026-04-04T11:35:17Z</time></trkpt><trkpt lat="51.040116384964314" lon="2.3806297192718655"><ele>9.0</ele><time>2026-04-04T11:35:19Z</time></trkpt><trkpt lat="51.04001931538297" lon="2.380641858011728"><ele>9.0</ele><time>2026-04-04T11:35:21Z</time></trkpt><trkpt lat="51.0398918603516" lon="2.3806309993779107"><ele>9.5</ele><time>2026-04-04T11:35:23Z</time></trkpt><trkpt lat="51.039794337248516" lon="2.3806448417302106"><ele>10.0</ele><time>2026-04-04T11:35:25Z</time></trkpt><trkpt lat="51.039721578526624" lon="2.38069071811219"><ele>10.5</ele><time>2026-04-04T11:35:28Z</time></trkpt><trkpt lat="51.03964837848738" lon="2.380685193524659"><ele>11.0</ele><time>2026-04-04T11:35:30Z</time></trkpt><trkpt lat="51.03958335587042" lon="2.380690753188255"><ele>11.5</ele><time>2026-04-04T11:35:31Z</time></trkpt><trkpt lat="51.03950492927969" lon="2.380718408935414"><ele>12.0</ele><time>2026-04-04T11:35:33Z</time></trkpt><trkpt lat="51.03938556723995" lon="2.3807130784986175"><ele>12.0</ele><time>2026-04-04T11:35:35Z</time></trkpt><trkpt lat="51.03928810827403" lon="2.3808201731274097"><ele>12.0</ele><time>2026-04-04T11:35:37Z</time></trkpt><trkpt lat="51.03922510760251" lon="2.380806804302963"><ele>12.0</ele><time>2026-04-04T11:35:38Z</time></trkpt><trkpt lat="51.039149347104654" lon="2.3808306164388573"><ele>12.0</ele><time>2026-04-04T11:35:39Z</time></trkpt><trkpt lat="51.03905865313846" lon="2.380752228950056"><ele>12.0</ele><time>2026-04-04T11:35:41Z</time></trkpt><trkpt lat="51.038970460677305" lon="2.3807434416173767"><ele>11.4</ele><time>2026-04-04T11:35:43Z</time></trkpt><trkpt lat="51.03888750758114" lon="2.380736997548466"><ele>10.799999999999999</ele><time>2026-04-04T11:35:46Z</time></trkpt><trkpt lat="51.03878140953444" lon="2.380771148550085"><ele>10.2</ele><time>2026-04-04T11:35:48Z</time></trkpt><trkpt lat="51.03868409642875" lon="2.3807414959711464"><ele>9.6</ele><time>2026-04-04T11:35:50Z</time></trkpt><trkpt lat="51.0386029302612" lon="2.380700125831732"><ele>9.0</ele><time>2026-04-04T11:35:52Z</time></trkpt><trkpt lat="51.03848370417805" lon="2.3807136803417293"><ele>9.0</ele><time>2026-04-04T11:35:54Z</time></trkpt><trkpt lat="51.038385147649024" lon="2.3807357642365807"><ele>9.0</ele><time>2026-04-04T11:35:56Z</time></trkpt><trkpt lat="51.0382974139191" lon="2.38075531770691"><ele>9.0</ele><time>2026-04-04T11:35:58Z</time></trkpt><trkpt lat="51.0382165421601" lon="2.3807565546735"><ele>9.0</ele><time>2026-04-04T11:36:00Z</time></trkpt><trkpt lat="51.03813737006375" lon="2.3807101996578983"><ele>9.0</ele><time>2026-04-04T11:36:02Z</time></trkpt><trkpt lat="51.0380526735882" lon="2.3807130861861774"><ele>9.0</ele><time>2026-04-04T11:36:04Z</time></trkpt><trkpt lat="51.03793605284256" lon="2.380685527274434"><ele>9.0</ele><time>2026-04-04T11:36:06Z</time></trkpt><trkpt lat="51.037825468931935" lon="2.3807110784746226"><ele>9.0</ele><time>2026-04-04T11:36:08Z</time></trkpt><trkpt lat="51.037715256001405" lon="2.380694612977577"><ele>9.0</ele><time>2026-04-04T11:36:10Z</time></trkpt><trkpt lat="51.037650417011015" lon="2.3806849259612104"><ele>9.0</ele><time>2026-04-04T11:36:12Z</time></trkpt><trkpt lat="51.037583275361605" lon="2.3806766995775424"><ele>9.0</ele><time>2026-04-04T11:36:14Z</time></trkpt><trkpt lat="51.037530067824434" lon="2.3805926591155826"><ele>9.0</ele><time>2026-04-04T11:36:15.999Z</time></trkpt><trkpt lat="51.03746052258612" lon="2.380578342315083"><ele>8.833333333333334</ele><time>2026-04-04T11:36:18.999Z</time></trkpt><trkpt lat="51.03739203655595" lon="2.380581493022786"><ele>8.666666666666666</ele><time>2026-04-04T11:36:22.999Z</time></trkpt><trkpt lat="51.03742636403782" lon="2.3807168640123177"><ele>8.5</ele><time>2026-04-04T11:36:25.999Z</time></trkpt><trkpt lat="51.037412436957595" lon="2.3808326068171786"><ele>8.333333333333332</ele><time>2026-04-04T11:36:27.999Z</time></trkpt><trkpt lat="51.03740056858046" lon="2.380984511182838"><ele>8.166666666666666</ele><time>2026-04-04T11:36:30.999Z</time></trkpt><trkpt lat="51.03740404055815" lon="2.3811227398397583"><ele>8.0</ele><time>2026-04-04T11:36:32.999Z</time></trkpt><trkpt lat="51.03740098034192" lon="2.381261551563382"><ele>7.999999999999999</ele><time>2026-04-04T11:36:34.999Z</time></trkpt><trkpt lat="51.0373724754801" lon="2.381379660075221"><ele>8.0</ele><time>2026-04-04T11:36:37.999Z</time></trkpt><trkpt lat="51.03728279502339" lon="2.381351191049301"><ele>8.0</ele><time>2026-04-04T11:36:41.999Z</time></trkpt><trkpt lat="51.037204019579534" lon="2.381353695617986"><ele>8.0</ele><time>2026-04-04T11:36:43.999Z</time></trkpt><trkpt lat="51.037136813891095" lon="2.381331446238626"><ele>7.999999999999999</ele><time>2026-04-04T11:36:45.999Z</time></trkpt><trkpt lat="51.037038680175165" lon="2.3813860069887687"><ele>8.0</ele><time>2026-04-04T11:36:47.999Z</time></trkpt><trkpt lat="51.03693637114476" lon="2.3814327690570973"><ele>7.999999999999999</ele><time>2026-04-04T11:36:49.999Z</time></trkpt><trkpt lat="51.036849647325575" lon="2.38142234855816"><ele>8.0</ele><time>2026-04-04T11:36:51.999Z</time></trkpt><trkpt lat="51.03677809985748" lon="2.3814043331629455"><ele>8.0</ele><time>2026-04-04T11:36:53.999Z</time></trkpt><trkpt lat="51.03672921327304" lon="2.381284728314544"><ele>8.0</ele><time>2026-04-04T11:36:56.999Z</time></trkpt><trkpt lat="51.03665706472965" lon="2.3812824636720755"><ele>7.999999999999999</ele><time>2026-04-04T11:36:58.999Z</time></trkpt><trkpt lat="51.03665441690112" lon="2.381394656513661"><ele>8.0</ele><time>2026-04-04T11:37:02.999Z</time></trkpt><trkpt lat="51.03663000574287" lon="2.381491522095276"><ele>8.166666666666666</ele><time>2026-04-04T11:37:05.999Z</time></trkpt><trkpt lat="51.03654949749173" lon="2.381511037402876"><ele>8.333333333333332</ele><time>2026-04-04T11:37:09.999Z</time></trkpt><trkpt lat="51.03649899846891" lon="2.3814422477007287"><ele>8.5</ele><time>2026-04-04T11:37:13.999Z</time></trkpt><trkpt lat="51.036435067008014" lon="2.381335632702811"><ele>8.666666666666666</ele><time>2026-04-04T11:37:16.999Z</time></trkpt><trkpt lat="51.03635914656964" lon="2.3812711976573864"><ele>8.833333333333334</ele><time>2026-04-04T11:37:18.999Z</time></trkpt><trkpt lat="51.036268101831766" lon="2.3811939509544713"><ele>9.0</ele><time>2026-04-04T11:37:21Z</time></trkpt><trkpt lat="51.03618340838428" lon="2.3810887618080314"><ele>9.0</ele><time>2026-04-04T11:37:23Z</time></trkpt><trkpt lat="51.036124276350364" lon="2.3809224896195946"><ele>9.0</ele><time>2026-04-04T11:37:25Z</time></trkpt><trkpt lat="51.03602903957476" lon="2.380862397343155"><ele>9.0</ele><time>2026-04-04T11:37:27Z</time></trkpt><trkpt lat="51.03594446745558" lon="2.3808280430045174"><ele>9.0</ele><time>2026-04-04T11:37:29Z</time></trkpt><trkpt lat="51.03585085942781" lon="2.3809449110277634"><ele>9.0</ele><time>2026-04-04T11:37:31Z</time></trkpt><trkpt lat="51.035782810405514" lon="2.3810603777864956"><ele>9.0</ele><time>2026-04-04T11:37:34Z</time></trkpt><trkpt lat="51.03573718010049" lon="2.381138962895874"><ele>9.0</ele><time>2026-04-04T11:37:36Z</time></trkpt><trkpt lat="51.03566520634674" lon="2.3812136677795706"><ele>9.0</ele><time>2026-04-04T11:37:39Z</time></trkpt><trkpt lat="51.03555596541774" lon="2.381242981156085"><ele>9.0</ele><time>2026-04-04T11:37:42Z</time></trkpt><trkpt lat="51.03545813245932" lon="2.381225207685772"><ele>9.0</ele><time>2026-04-04T11:37:44Z</time></trkpt><trkpt lat="51.035359590909536" lon="2.3812075769837544"><ele>9.0</ele><time>2026-04-04T11:37:46Z</time></trkpt><trkpt lat="51.03528243326896" lon="2.3812052782803406"><ele>9.0</ele><time>2026-04-04T11:37:48Z</time></trkpt><trkpt lat="51.03535649619853" lon="2.3812535885794683"><ele>9.0</ele><time>2026-04-04T11:38:37.999Z</time></trkpt><trkpt lat="51.03547155521236" lon="2.381263997543968"><ele>9.0</ele><time>2026-04-04T11:38:42.999Z</time></trkpt><trkpt lat="51.035543178959024" lon="2.3812914901943034"><ele>9.0</ele><time>2026-04-04T11:39:00.999Z</time></trkpt><trkpt lat="51.03563257891753" lon="2.3812807638901075"><ele>9.0</ele><time>2026-04-04T11:39:35Z</time></trkpt><trkpt lat="51.03568050268771" lon="2.381214525730186"><ele>9.0</ele><time>2026-04-04T11:39:42Z</time></trkpt><trkpt lat="51.03574259414659" lon="2.381167806933633"><ele>9.0</ele><time>2026-04-04T11:39:46Z</time></trkpt><trkpt lat="51.035886512697786" lon="2.381102657535966"><ele>9.0</ele><time>2026-04-04T11:39:56Z</time></trkpt><trkpt lat="51.035974720900285" lon="2.3810813773865065"><ele>9.0</ele><time>2026-04-04T11:40:04Z</time></trkpt><trkpt lat="51.036040012702635" lon="2.381103456186559"><ele>9.0</ele><time>2026-04-04T11:40:09Z</time></trkpt><trkpt lat="51.03611472756729" lon="2.38111230338976"><ele>9.0</ele><time>2026-04-04T11:40:18Z</time></trkpt><trkpt lat="51.03617908131033" lon="2.3811460533521642"><ele>9.000000000000002</ele><time>2026-04-04T11:40:24.999Z</time></trkpt><trkpt lat="51.036240295367236" lon="2.381227846380033"><ele>9.0</ele><time>2026-04-04T11:40:31.999Z</time></trkpt><trkpt lat="51.036298668034284" lon="2.3812665365404366"><ele>9.0</ele><time>2026-04-04T11:40:39.999Z</time></trkpt><trkpt lat="51.03634452549951" lon="2.3813476515234138"><ele>9.0</ele><time>2026-04-04T11:40:46.999Z</time></trkpt><trkpt lat="51.03641287953383" lon="2.3813894804580173"><ele>9.0</ele><time>2026-04-04T11:40:55.999Z</time></trkpt><trkpt lat="51.03646744848225" lon="2.3814394574542797"><ele>9.000000000000002</ele><time>2026-04-04T11:41:01.999Z</time></trkpt><trkpt lat="51.03653672074989" lon="2.3814875480762288"><ele>9.0</ele><time>2026-04-04T11:41:08.999Z</time></trkpt><trkpt lat="51.036602124292074" lon="2.381545864186522"><ele>8.857142857142858</ele><time>2026-04-04T11:41:14.999Z</time></trkpt><trkpt lat="51.03665988395393" lon="2.381614534398986"><ele>8.714285714285715</ele><time>2026-04-04T11:41:20.999Z</time></trkpt><trkpt lat="51.03674333848035" lon="2.3816244742324795"><ele>8.571428571428571</ele><time>2026-04-04T11:41:28.999Z</time></trkpt><trkpt lat="51.03680766444017" lon="2.3815508064599755"><ele>8.428571428571429</ele><time>2026-04-04T11:41:34Z</time></trkpt><trkpt lat="51.036866359115855" lon="2.3815018354386868"><ele>8.285714285714285</ele><time>2026-04-04T11:41:42Z</time></trkpt><trkpt lat="51.03693278958263" lon="2.3814656090988158"><ele>8.142857142857142</ele><time>2026-04-04T11:41:49Z</time></trkpt><trkpt lat="51.037005611312466" lon="2.3814555292872357"><ele>8.0</ele><time>2026-04-04T11:41:55Z</time></trkpt><trkpt lat="51.03708740965399" lon="2.3814398459730026"><ele>8.0</ele><time>2026-04-04T11:42:01Z</time></trkpt><trkpt lat="51.03714964201451" lon="2.38146711063975"><ele>7.999999999999999</ele><time>2026-04-04T11:42:06Z</time></trkpt><trkpt lat="51.03721481223683" lon="2.381491846378254"><ele>8.0</ele><time>2026-04-04T11:42:11Z</time></trkpt><trkpt lat="51.037273561926746" lon="2.3815615014119174"><ele>8.0</ele><time>2026-04-04T11:42:17Z</time></trkpt><trkpt lat="51.037336683913786" lon="2.3815775300315734"><ele>7.999999999999999</ele><time>2026-04-04T11:42:22Z</time></trkpt><trkpt lat="51.037413907846286" lon="2.381604886891055"><ele>8.0</ele><time>2026-04-04T11:42:28Z</time></trkpt><trkpt lat="51.03747827969044" lon="2.3816058824601223"><ele>8.0</ele><time>2026-04-04T11:42:33.999Z</time></trkpt><trkpt lat="51.0375425671716" lon="2.381620670723673"><ele>8.142857142857142</ele><time>2026-04-04T11:42:38.999Z</time></trkpt><trkpt lat="51.03760713035218" lon="2.381632025709026"><ele>8.285714285714285</ele><time>2026-04-04T11:42:44.999Z</time></trkpt><trkpt lat="51.03766860079172" lon="2.381653666164304"><ele>8.428571428571429</ele><time>2026-04-04T11:42:50.999Z</time></trkpt><trkpt lat="51.03773770325692" lon="2.38167646163438"><ele>8.571428571428571</ele><time>2026-04-04T11:42:57.999Z</time></trkpt><trkpt lat="51.03780096843022" lon="2.3816701261049933"><ele>8.714285714285715</ele><time>2026-04-04T11:43:03.999Z</time></trkpt><trkpt lat="51.037864906135944" lon="2.381665443449176"><ele>8.857142857142858</ele><time>2026-04-04T11:43:10.999Z</time></trkpt><trkpt lat="51.03793367870026" lon="2.3816983925214785"><ele>9.0</ele><time>2026-04-04T11:43:16.999Z</time></trkpt><trkpt lat="51.0379963990196" lon="2.3817293011059713"><ele>9.000000000000002</ele><time>2026-04-04T11:43:21.999Z</time></trkpt><trkpt lat="51.0380699690381" lon="2.3817554506222343"><ele>9.0</ele><time>2026-04-04T11:43:27.999Z</time></trkpt><trkpt lat="51.038147455452616" lon="2.3817887369178887"><ele>9.0</ele><time>2026-04-04T11:43:35.999Z</time></trkpt><trkpt lat="51.038212176501276" lon="2.3817700583935566"><ele>9.0</ele><time>2026-04-04T11:43:41Z</time></trkpt><trkpt lat="51.03828782139727" lon="2.381784996128397"><ele>9.0</ele><time>2026-04-04T11:43:46Z</time></trkpt><trkpt lat="51.03835975032134" lon="2.381775198699328"><ele>9.000000000000002</ele><time>2026-04-04T11:43:52Z</time></trkpt><trkpt lat="51.038422275360325" lon="2.3817543650647184"><ele>9.0</ele><time>2026-04-04T11:43:56Z</time></trkpt><trkpt lat="51.03849068799638" lon="2.3817560084372458"><ele>9.000000000000002</ele><time>2026-04-04T11:44:03Z</time></trkpt><trkpt lat="51.038558436340566" lon="2.3817194814422424"><ele>9.0</ele><time>2026-04-04T11:44:09Z</time></trkpt><trkpt lat="51.03863104218629" lon="2.3817420639913416"><ele>9.0</ele><time>2026-04-04T11:44:16Z</time></trkpt><trkpt lat="51.038674234828164" lon="2.381652713647353"><ele>9.0</ele><time>2026-04-04T11:44:21Z</time></trkpt><trkpt lat="51.03874035264998" lon="2.3816807864406573"><ele>9.0</ele><time>2026-04-04T11:44:25Z</time></trkpt><trkpt lat="51.03878408439786" lon="2.3817703363911558"><ele>9.000000000000002</ele><time>2026-04-04T11:44:28Z</time></trkpt><trkpt lat="51.03883620078805" lon="2.3818321813714727"><ele>9.0</ele><time>2026-04-04T11:44:32Z</time></trkpt><trkpt lat="51.038901238591315" lon="2.3818298724343556"><ele>9.000000000000002</ele><time>2026-04-04T11:44:37.999Z</time></trkpt><trkpt lat="51.038967770881804" lon="2.3818271558362265"><ele>9.0</ele><time>2026-04-04T11:44:44.999Z</time></trkpt><trkpt lat="51.03904692240513" lon="2.381792608511132"><ele>9.0</ele><time>2026-04-04T11:44:51.999Z</time></trkpt><trkpt lat="51.039107521237824" lon="2.3818321100812136"><ele>9.0</ele><time>2026-04-04T11:44:55.999Z</time></trkpt><trkpt lat="51.03918020410087" lon="2.3818415584498607"><ele>9.0</ele><time>2026-04-04T11:45:00.999Z</time></trkpt><trkpt lat="51.039243306265014" lon="2.38187567753333"><ele>9.000000000000002</ele><time>2026-04-04T11:45:07.999Z</time></trkpt><trkpt lat="51.039306870990316" lon="2.3819123969091462"><ele>9.0</ele><time>2026-04-04T11:45:12.999Z</time></trkpt><trkpt lat="51.03936699647815" lon="2.3819507267353686"><ele>9.142857142857144</ele><time>2026-04-04T11:45:19.999Z</time></trkpt><trkpt lat="51.03942943210146" lon="2.3819742634570455"><ele>9.285714285714286</ele><time>2026-04-04T11:45:25.999Z</time></trkpt><trkpt lat="51.039498474851285" lon="2.381969165126041"><ele>9.428571428571429</ele><time>2026-04-04T11:45:32.999Z</time></trkpt><trkpt lat="51.03954658886836" lon="2.382056553384063"><ele>9.571428571428573</ele><time>2026-04-04T11:45:37.999Z</time></trkpt><trkpt lat="51.03961392272287" lon="2.382090936319581"><ele>9.714285714285715</ele><time>2026-04-04T11:45:45Z</time></trkpt><trkpt lat="51.0396783479432" lon="2.3820957298361543"><ele>9.857142857142858</ele><time>2026-04-04T11:45:50Z</time></trkpt><trkpt lat="51.03974524407894" lon="2.3820662803178543"><ele>10.0</ele><time>2026-04-04T11:45:58Z</time></trkpt><trkpt lat="51.03980879947832" lon="2.3821145067765377"><ele>10.0</ele><time>2026-04-04T11:46:04Z</time></trkpt><trkpt lat="51.039874308371665" lon="2.3821224908420047"><ele>10.0</ele><time>2026-04-04T11:46:10Z</time></trkpt><trkpt lat="51.03993911317159" lon="2.3821492670683666"><ele>10.0</ele><time>2026-04-04T11:46:17Z</time></trkpt><trkpt lat="51.040009248064756" lon="2.382145429144382"><ele>10.0</ele><time>2026-04-04T11:46:23Z</time></trkpt><trkpt lat="51.040074850559996" lon="2.3821481795847728"><ele>10.0</ele><time>2026-04-04T11:46:29Z</time></trkpt><trkpt lat="51.040139770198394" lon="2.3821687725615073"><ele>10.0</ele><time>2026-04-04T11:46:36Z</time></trkpt><trkpt lat="51.040205332650494" lon="2.382162254830554"><ele>10.0</ele><time>2026-04-04T11:46:41.999Z</time></trkpt><trkpt lat="51.040269321473005" lon="2.3821869552149013"><ele>9.857142857142858</ele><time>2026-04-04T11:46:47.999Z</time></trkpt><trkpt lat="51.04034107426714" lon="2.3822116493097787"><ele>9.714285714285715</ele><time>2026-04-04T11:46:54.999Z</time></trkpt><trkpt lat="51.04040599756836" lon="2.382217940067704"><ele>9.571428571428573</ele><time>2026-04-04T11:47:00.999Z</time></trkpt><trkpt lat="51.04046424116434" lon="2.3822703439727313"><ele>9.428571428571429</ele><time>2026-04-04T11:47:08.999Z</time></trkpt><trkpt lat="51.04053166136777" lon="2.3822592439020718"><ele>9.285714285714286</ele><time>2026-04-04T11:47:14.999Z</time></trkpt><trkpt lat="51.040593515221666" lon="2.3823108160657793"><ele>9.142857142857144</ele><time>2026-04-04T11:47:20.999Z</time></trkpt><trkpt lat="51.040660548300636" lon="2.382332566879694"><ele>9.0</ele><time>2026-04-04T11:47:27.999Z</time></trkpt><trkpt lat="51.04069213534144" lon="2.3822094831809357"><ele>8.714285714285715</ele><time>2026-04-04T11:48:13Z</time></trkpt><trkpt lat="51.040667947676816" lon="2.382094881331768"><ele>8.428571428571429</ele><time>2026-04-04T11:48:20Z</time></trkpt><trkpt lat="51.040700938933874" lon="2.3819890326233035"><ele>8.142857142857142</ele><time>2026-04-04T11:48:26Z</time></trkpt><trkpt lat="51.04069187548451" lon="2.3818875670358617"><ele>7.857142857142858</ele><time>2026-04-04T11:48:32Z</time></trkpt><trkpt lat="51.04071422927075" lon="2.381785815785393"><ele>7.571428571428571</ele><time>2026-04-04T11:48:40Z</time></trkpt><trkpt lat="51.040688495311706" lon="2.3816864847481996"><ele>7.285714285714286</ele><time>2026-04-04T11:48:50.999Z</time></trkpt><trkpt lat="51.040698063722196" lon="2.3815771099725223"><ele>7.0</ele><time>2026-04-04T11:48:57.999Z</time></trkpt><trkpt lat="51.04069743717592" lon="2.3814703119857383"><ele>7.0</ele><time>2026-04-04T11:49:03.999Z</time></trkpt><trkpt lat="51.040655931828084" lon="2.3813766092745565"><ele>7.0</ele><time>2026-04-04T11:49:12.999Z</time></trkpt><trkpt lat="51.0406464011969" lon="2.381274832022368"><ele>7.0</ele><time>2026-04-04T11:49:20.999Z</time></trkpt><trkpt lat="51.040596976634305" lon="2.381182318065073"><ele>7.0</ele><time>2026-04-04T11:49:45.999Z</time></trkpt><trkpt lat="51.04060542933465" lon="2.3810718255753183"><ele>7.0</ele><time>2026-04-04T11:49:53.999Z</time></trkpt><trkpt lat="51.040634642208495" lon="2.3809757255855812"><ele>7.0</ele><time>2026-04-04T11:50:01Z</time></trkpt><trkpt lat="51.04067205370712" lon="2.380877280640126"><ele>7.0</ele><time>2026-04-04T11:50:07Z</time></trkpt><trkpt lat="51.04068692439921" lon="2.380779934435404"><ele>7.142857142857142</ele><time>2026-04-04T11:50:16Z</time></trkpt><trkpt lat="51.04070566989937" lon="2.380665461318229"><ele>7.285714285714286</ele><time>2026-04-04T11:50:26Z</time></trkpt><trkpt lat="51.04076717691636" lon="2.3805981571439583"><ele>7.428571428571429</ele><time>2026-04-04T11:50:34Z</time></trkpt><trkpt lat="51.0408293610616" lon="2.3805756523657093"><ele>7.571428571428571</ele><time>2026-04-04T11:50:39Z</time></trkpt><trkpt lat="51.04089513540374" lon="2.3804977255441253"><ele>7.7142857142857135</ele><time>2026-04-04T11:50:44Z</time></trkpt><trkpt lat="51.040969855140375" lon="2.3805291801486463"><ele>7.857142857142857</ele><time>2026-04-04T11:50:51.999Z</time></trkpt><trkpt lat="51.041035848774925" lon="2.3805560913676587"><ele>8.0</ele><time>2026-04-04T11:50:57.999Z</time></trkpt><trkpt lat="51.04110100448691" lon="2.3805098314451016"><ele>8.0</ele><time>2026-04-04T11:51:04.999Z</time></trkpt><trkpt lat="51.041177518000886" lon="2.3805109698123705"><ele>7.999999999999999</ele><time>2026-04-04T11:51:12.999Z</time></trkpt><trkpt lat="51.04124671653303" lon="2.3805412312579044"><ele>8.0</ele><time>2026-04-04T11:51:19.999Z</time></trkpt><trkpt lat="51.041303008714976" lon="2.3806062317410457"><ele>8.0</ele><time>2026-04-04T11:51:25.999Z</time></trkpt><trkpt lat="51.041367075777686" lon="2.38060033649452"><ele>7.999999999999999</ele><time>2026-04-04T11:51:32.999Z</time></trkpt><trkpt lat="51.04142269554551" lon="2.3805387033551337"><ele>8.0</ele><time>2026-04-04T11:51:38.999Z</time></trkpt><trkpt lat="51.04145664755396" lon="2.380433995374085"><ele>8.0</ele><time>2026-04-04T11:51:48.999Z</time></trkpt><trkpt lat="51.04144965791209" lon="2.3803214442314293"><ele>8.0</ele><time>2026-04-04T11:51:54.999Z</time></trkpt><trkpt lat="51.041422456101344" lon="2.3802300577567492"><ele>7.999999999999999</ele><time>2026-04-04T11:52:00.998Z</time></trkpt><trkpt lat="51.041429033886416" lon="2.3801274561704204"><ele>8.0</ele><time>2026-04-04T11:52:08Z</time></trkpt><trkpt lat="51.04147207494612" lon="2.3800486909181497"><ele>8.0</ele><time>2026-04-04T11:52:14Z</time></trkpt><trkpt lat="51.04149963961819" lon="2.3799449816995963"><ele>7.999999999999999</ele><time>2026-04-04T11:52:22Z</time></trkpt><trkpt lat="51.041545558709004" lon="2.3798762868839303"><ele>8.0</ele><time>2026-04-04T11:52:28Z</time></trkpt><trkpt lat="51.04157971136266" lon="2.3797921305816345"><ele>8.0</ele><time>2026-04-04T11:52:33Z</time></trkpt><trkpt lat="51.041608505935045" lon="2.379699325081265"><ele>7.857142857142857</ele><time>2026-04-04T11:52:40Z</time></trkpt><trkpt lat="51.04165320764708" lon="2.3796111294260176"><ele>7.7142857142857135</ele><time>2026-04-04T11:52:46Z</time></trkpt><trkpt lat="51.041678325719644" lon="2.3794995740401497"><ele>7.571428571428571</ele><time>2026-04-04T11:52:53.999Z</time></trkpt><trkpt lat="51.04168993397469" lon="2.3794004066785255"><ele>7.428571428571429</ele><time>2026-04-04T11:52:59.999Z</time></trkpt><trkpt lat="51.04172458727675" lon="2.379307516578945"><ele>7.285714285714286</ele><time>2026-04-04T11:53:05.999Z</time></trkpt><trkpt lat="51.041720334991" lon="2.3792045227516145"><ele>7.142857142857142</ele><time>2026-04-04T11:53:09.999Z</time></trkpt><trkpt lat="51.04178013581493" lon="2.3791319694702366"><ele>7.0</ele><time>2026-04-04T11:53:16.999Z</time></trkpt><trkpt lat="51.04183632120411" lon="2.3790837824573408"><ele>7.0</ele><time>2026-04-04T11:53:21.999Z</time></trkpt><trkpt lat="51.04187674866364" lon="2.379000523711421"><ele>7.0</ele><time>2026-04-04T11:53:26.999Z</time></trkpt><trkpt lat="51.041924720216045" lon="2.3789102622024756"><ele>7.0</ele><time>2026-04-04T11:53:33.999Z</time></trkpt><trkpt lat="51.041953059304355" lon="2.3788029150611893"><ele>7.0</ele><time>2026-04-04T11:53:40.999Z</time></trkpt><trkpt lat="51.04199103894085" lon="2.3787192122584777"><ele>7.0</ele><time>2026-04-04T11:53:46.999Z</time></trkpt><trkpt lat="51.042050591710726" lon="2.3786536261024716"><ele>7.0</ele><time>2026-04-04T11:53:56.999Z</time></trkpt><trkpt lat="51.042116866894794" lon="2.378635539102577"><ele>7.0</ele><time>2026-04-04T11:54:02.999Z</time></trkpt><trkpt lat="51.04213918556942" lon="2.378736196659525"><ele>7.0</ele><time>2026-04-04T11:54:24Z</time></trkpt><trkpt lat="51.04221399554919" lon="2.3787616728085488"><ele>7.0</ele><time>2026-04-04T11:54:25Z</time></trkpt><trkpt lat="51.04216761870039" lon="2.378855692103449"><ele>7.0</ele><time>2026-04-04T11:54:29Z</time></trkpt><trkpt lat="51.04219441034889" lon="2.3791097908756287"><ele>7.0</ele><time>2026-04-04T11:54:31Z</time></trkpt><trkpt lat="51.04216938470863" lon="2.3794020830359"><ele>7.000000000000001</ele><time>2026-04-04T11:54:34Z</time></trkpt><trkpt lat="51.042102988195204" lon="2.379351498229152"><ele>7.0</ele><time>2026-04-04T11:54:35Z</time></trkpt><trkpt lat="51.0420378377748" lon="2.3793164466980485"><ele>7.0</ele><time>2026-04-04T11:55:46.999Z</time></trkpt><trkpt lat="51.042024094187106" lon="2.3792083296927076"><ele>7.0</ele><time>2026-04-04T11:55:57.999Z</time></trkpt><trkpt lat="51.04205820897948" lon="2.379068573420687"><ele>7.000000000000001</ele><time>2026-04-04T11:56:02.999Z</time></trkpt><trkpt lat="51.04213103140159" lon="2.379251290508846"><ele>7.0</ele><time>2026-04-04T11:56:37Z</time></trkpt><trkpt lat="51.04206937969148" lon="2.3793281794620538"><ele>7.0</ele><time>2026-04-04T11:57:32.999Z</time></trkpt><trkpt lat="51.04202939895849" lon="2.379230828096511"><ele>7.0</ele><time>2026-04-04T11:57:40.999Z</time></trkpt><trkpt lat="51.042058760889056" lon="2.3791213639891353"><ele>7.0</ele><time>2026-04-04T11:57:42.999Z</time></trkpt><trkpt lat="51.0420792279435" lon="2.3793264055386967"><ele>7.0</ele><time>2026-04-04T11:58:58Z</time></trkpt><trkpt lat="51.04203294829592" lon="2.3789185826746104"><ele>6.5</ele><time>2026-04-04T12:00:22.562Z</time></trkpt><trkpt lat="51.04203123823415" lon="2.378729733552321"><ele>6.0</ele><time>2026-04-04T12:00:32.514Z</time></trkpt><trkpt lat="51.04194354943787" lon="2.3786536647086587"><ele>5.5</ele><time>2026-04-04T12:00:46.153Z</time></trkpt><trkpt lat="51.04186255011564" lon="2.378617427694714"><ele>5.0</ele><time>2026-04-04T12:00:51.818Z</time></trkpt><trkpt lat="51.04190262050094" lon="2.378848736520818"><ele>5.0</ele><time>2026-04-04T12:00:57.998Z</time></trkpt><trkpt lat="51.0419345183928" lon="2.3789636544050548"><ele>7.0</ele><time>2026-04-04T12:01:10Z</time></trkpt><trkpt lat="51.041887415950676" lon="2.3788420291165795"><ele>5.0</ele><time>2026-04-04T12:02:05.999Z</time></trkpt><trkpt lat="51.04182135950205" lon="2.3789037648404037"><ele>7.0</ele><time>2026-04-04T12:02:07.999Z</time></trkpt><trkpt lat="51.041737186089115" lon="2.3789229805412977"><ele>7.0</ele><time>2026-04-04T12:02:57.999Z</time></trkpt></trkseg></trk></gpx>